<?xml version="1.0" encoding="UTF-8" standalone="no" ?>
<gpx xmlns="http://www.topografix.com/GPX/1/1" xmlns:xsi="http://www.w3.org/2001/XMLSchema-instance" xsi:schemaLocation="http://www.topografix.com/GPX/1/1 http://www.topografix.com/GPX/1/1/gpx.xsd" version="1.1" creator="VisuGPX - https://www.visugpx.com">
  <metadata>
    <name>83-V-Carcès    </name>
    <desc><![CDATA[83-V-Carcès :  sur la piste des trois Frères]]></desc>
  </metadata>
  <trk>
    <name><![CDATA[2019-04-19-V-carces]]></name>
    <trkseg>
      <trkpt lat="43.47779" lon="6.18336">
        <ele>158.9</ele>
        <time>2019-04-19T11:57:27Z</time>
      </trkpt>
      <trkpt lat="43.47779" lon="6.18336">
        <ele>158.9</ele>
        <time>2019-04-19T11:57:28Z</time>
      </trkpt>
      <trkpt lat="43.4777" lon="6.18331">
        <ele>159</ele>
        <time>2019-04-19T11:59:42Z</time>
      </trkpt>
      <trkpt lat="43.47779" lon="6.18337">
        <ele>158.9</ele>
        <time>2019-04-19T12:02:54Z</time>
      </trkpt>
      <trkpt lat="43.47769" lon="6.18336">
        <ele>158.9</ele>
        <time>2019-04-19T12:03:42Z</time>
      </trkpt>
      <trkpt lat="43.47761" lon="6.1833">
        <ele>159.1</ele>
        <time>2019-04-19T12:04:00Z</time>
      </trkpt>
      <trkpt lat="43.47756" lon="6.18318">
        <ele>159.2</ele>
        <time>2019-04-19T12:04:12Z</time>
      </trkpt>
      <trkpt lat="43.47754" lon="6.18306">
        <ele>159.2</ele>
        <time>2019-04-19T12:04:21Z</time>
      </trkpt>
      <trkpt lat="43.47759" lon="6.18295">
        <ele>158.9</ele>
        <time>2019-04-19T12:04:34Z</time>
      </trkpt>
      <trkpt lat="43.47768" lon="6.18288">
        <ele>158.6</ele>
        <time>2019-04-19T12:04:45Z</time>
      </trkpt>
      <trkpt lat="43.47777" lon="6.18286">
        <ele>158.3</ele>
        <time>2019-04-19T12:04:56Z</time>
      </trkpt>
      <trkpt lat="43.47786" lon="6.18289">
        <ele>157.8</ele>
        <time>2019-04-19T12:05:06Z</time>
      </trkpt>
      <trkpt lat="43.47796" lon="6.18289">
        <ele>158</ele>
        <time>2019-04-19T12:05:14Z</time>
      </trkpt>
      <trkpt lat="43.47806" lon="6.18291">
        <ele>157.9</ele>
        <time>2019-04-19T12:05:23Z</time>
      </trkpt>
      <trkpt lat="43.47814" lon="6.18295">
        <ele>158.4</ele>
        <time>2019-04-19T12:05:34Z</time>
      </trkpt>
      <trkpt lat="43.47824" lon="6.18297">
        <ele>157.4</ele>
        <time>2019-04-19T12:05:47Z</time>
      </trkpt>
      <trkpt lat="43.47833" lon="6.18294">
        <ele>157.4</ele>
        <time>2019-04-19T12:05:56Z</time>
      </trkpt>
      <trkpt lat="43.47843" lon="6.18296">
        <ele>157.7</ele>
        <time>2019-04-19T12:06:04Z</time>
      </trkpt>
      <trkpt lat="43.47852" lon="6.18299">
        <ele>158.3</ele>
        <time>2019-04-19T12:06:12Z</time>
      </trkpt>
      <trkpt lat="43.47861" lon="6.18299">
        <ele>158.8</ele>
        <time>2019-04-19T12:06:21Z</time>
      </trkpt>
      <trkpt lat="43.4787" lon="6.18301">
        <ele>159.1</ele>
        <time>2019-04-19T12:06:30Z</time>
      </trkpt>
      <trkpt lat="43.4788" lon="6.18303">
        <ele>159.4</ele>
        <time>2019-04-19T12:06:39Z</time>
      </trkpt>
      <trkpt lat="43.47887" lon="6.18311">
        <ele>159.7</ele>
        <time>2019-04-19T12:06:48Z</time>
      </trkpt>
      <trkpt lat="43.47893" lon="6.18322">
        <ele>160.1</ele>
        <time>2019-04-19T12:06:57Z</time>
      </trkpt>
      <trkpt lat="43.47899" lon="6.18333">
        <ele>160.1</ele>
        <time>2019-04-19T12:07:06Z</time>
      </trkpt>
      <trkpt lat="43.47904" lon="6.18344">
        <ele>161.2</ele>
        <time>2019-04-19T12:07:17Z</time>
      </trkpt>
      <trkpt lat="43.47912" lon="6.18352">
        <ele>161.5</ele>
        <time>2019-04-19T12:07:28Z</time>
      </trkpt>
      <trkpt lat="43.47921" lon="6.18354">
        <ele>161.2</ele>
        <time>2019-04-19T12:07:38Z</time>
      </trkpt>
      <trkpt lat="43.4793" lon="6.18349">
        <ele>162.1</ele>
        <time>2019-04-19T12:07:49Z</time>
      </trkpt>
      <trkpt lat="43.47938" lon="6.18344">
        <ele>162.1</ele>
        <time>2019-04-19T12:07:59Z</time>
      </trkpt>
      <trkpt lat="43.47947" lon="6.18339">
        <ele>162.1</ele>
        <time>2019-04-19T12:08:08Z</time>
      </trkpt>
      <trkpt lat="43.47956" lon="6.18341">
        <ele>161.7</ele>
        <time>2019-04-19T12:08:23Z</time>
      </trkpt>
      <trkpt lat="43.47958" lon="6.18354">
        <ele>161.1</ele>
        <time>2019-04-19T12:08:39Z</time>
      </trkpt>
      <trkpt lat="43.47962" lon="6.18365">
        <ele>161.4</ele>
        <time>2019-04-19T12:08:51Z</time>
      </trkpt>
      <trkpt lat="43.47967" lon="6.18376">
        <ele>161.6</ele>
        <time>2019-04-19T12:09:00Z</time>
      </trkpt>
      <trkpt lat="43.47973" lon="6.18385">
        <ele>161.8</ele>
        <time>2019-04-19T12:09:10Z</time>
      </trkpt>
      <trkpt lat="43.47979" lon="6.18395">
        <ele>161.3</ele>
        <time>2019-04-19T12:09:19Z</time>
      </trkpt>
      <trkpt lat="43.47987" lon="6.18403">
        <ele>161.3</ele>
        <time>2019-04-19T12:09:28Z</time>
      </trkpt>
      <trkpt lat="43.47995" lon="6.1841">
        <ele>162</ele>
        <time>2019-04-19T12:09:37Z</time>
      </trkpt>
      <trkpt lat="43.48002" lon="6.18417">
        <ele>162.4</ele>
        <time>2019-04-19T12:09:46Z</time>
      </trkpt>
      <trkpt lat="43.4801" lon="6.18424">
        <ele>162.5</ele>
        <time>2019-04-19T12:09:54Z</time>
      </trkpt>
      <trkpt lat="43.48019" lon="6.18431">
        <ele>162.8</ele>
        <time>2019-04-19T12:10:07Z</time>
      </trkpt>
      <trkpt lat="43.48027" lon="6.18439">
        <ele>162.3</ele>
        <time>2019-04-19T12:10:18Z</time>
      </trkpt>
      <trkpt lat="43.48036" lon="6.18445">
        <ele>162.4</ele>
        <time>2019-04-19T12:10:25Z</time>
      </trkpt>
      <trkpt lat="43.48045" lon="6.18452">
        <ele>162.7</ele>
        <time>2019-04-19T12:10:35Z</time>
      </trkpt>
      <trkpt lat="43.48054" lon="6.18458">
        <ele>162.8</ele>
        <time>2019-04-19T12:10:47Z</time>
      </trkpt>
      <trkpt lat="43.4806" lon="6.18468">
        <ele>162.9</ele>
        <time>2019-04-19T12:10:55Z</time>
      </trkpt>
      <trkpt lat="43.48068" lon="6.18474">
        <ele>162.9</ele>
        <time>2019-04-19T12:11:04Z</time>
      </trkpt>
      <trkpt lat="43.48076" lon="6.18481">
        <ele>162.8</ele>
        <time>2019-04-19T12:11:12Z</time>
      </trkpt>
      <trkpt lat="43.48084" lon="6.18488">
        <ele>163</ele>
        <time>2019-04-19T12:11:19Z</time>
      </trkpt>
      <trkpt lat="43.48091" lon="6.18496">
        <ele>163.3</ele>
        <time>2019-04-19T12:11:26Z</time>
      </trkpt>
      <trkpt lat="43.48099" lon="6.18503">
        <ele>163.2</ele>
        <time>2019-04-19T12:11:35Z</time>
      </trkpt>
      <trkpt lat="43.48106" lon="6.18512">
        <ele>163.5</ele>
        <time>2019-04-19T12:11:44Z</time>
      </trkpt>
      <trkpt lat="43.48112" lon="6.18522">
        <ele>163</ele>
        <time>2019-04-19T12:11:53Z</time>
      </trkpt>
      <trkpt lat="43.48118" lon="6.18532">
        <ele>163.3</ele>
        <time>2019-04-19T12:12:02Z</time>
      </trkpt>
      <trkpt lat="43.48124" lon="6.18542">
        <ele>163.8</ele>
        <time>2019-04-19T12:12:11Z</time>
      </trkpt>
      <trkpt lat="43.48129" lon="6.18552">
        <ele>163.9</ele>
        <time>2019-04-19T12:12:20Z</time>
      </trkpt>
      <trkpt lat="43.48137" lon="6.1856">
        <ele>163.5</ele>
        <time>2019-04-19T12:12:31Z</time>
      </trkpt>
      <trkpt lat="43.48145" lon="6.18564">
        <ele>164</ele>
        <time>2019-04-19T12:12:40Z</time>
      </trkpt>
      <trkpt lat="43.48155" lon="6.18569">
        <ele>164.3</ele>
        <time>2019-04-19T12:12:49Z</time>
      </trkpt>
      <trkpt lat="43.48164" lon="6.18575">
        <ele>164.1</ele>
        <time>2019-04-19T12:12:57Z</time>
      </trkpt>
      <trkpt lat="43.48172" lon="6.18579">
        <ele>164.2</ele>
        <time>2019-04-19T12:13:05Z</time>
      </trkpt>
      <trkpt lat="43.48181" lon="6.18582">
        <ele>164</ele>
        <time>2019-04-19T12:13:13Z</time>
      </trkpt>
      <trkpt lat="43.48191" lon="6.18586">
        <ele>164.4</ele>
        <time>2019-04-19T12:13:23Z</time>
      </trkpt>
      <trkpt lat="43.482" lon="6.18591">
        <ele>164.1</ele>
        <time>2019-04-19T12:13:33Z</time>
      </trkpt>
      <trkpt lat="43.48209" lon="6.18594">
        <ele>164.2</ele>
        <time>2019-04-19T12:13:43Z</time>
      </trkpt>
      <trkpt lat="43.48219" lon="6.18597">
        <ele>164.6</ele>
        <time>2019-04-19T12:13:54Z</time>
      </trkpt>
      <trkpt lat="43.48228" lon="6.18599">
        <ele>164.7</ele>
        <time>2019-04-19T12:14:03Z</time>
      </trkpt>
      <trkpt lat="43.48237" lon="6.18603">
        <ele>165.3</ele>
        <time>2019-04-19T12:14:12Z</time>
      </trkpt>
      <trkpt lat="43.48246" lon="6.18606">
        <ele>165.5</ele>
        <time>2019-04-19T12:14:21Z</time>
      </trkpt>
      <trkpt lat="43.48255" lon="6.18609">
        <ele>165.5</ele>
        <time>2019-04-19T12:14:31Z</time>
      </trkpt>
      <trkpt lat="43.48264" lon="6.18613">
        <ele>165.9</ele>
        <time>2019-04-19T12:14:41Z</time>
      </trkpt>
      <trkpt lat="43.48268" lon="6.18625">
        <ele>166.2</ele>
        <time>2019-04-19T12:14:51Z</time>
      </trkpt>
      <trkpt lat="43.48269" lon="6.18638">
        <ele>166.7</ele>
        <time>2019-04-19T12:15:01Z</time>
      </trkpt>
      <trkpt lat="43.48268" lon="6.18651">
        <ele>167.2</ele>
        <time>2019-04-19T12:15:12Z</time>
      </trkpt>
      <trkpt lat="43.4827" lon="6.18664">
        <ele>167.9</ele>
        <time>2019-04-19T12:15:23Z</time>
      </trkpt>
      <trkpt lat="43.48273" lon="6.18677">
        <ele>168.8</ele>
        <time>2019-04-19T12:15:38Z</time>
      </trkpt>
      <trkpt lat="43.48279" lon="6.18688">
        <ele>169.3</ele>
        <time>2019-04-19T12:15:48Z</time>
      </trkpt>
      <trkpt lat="43.48285" lon="6.18698">
        <ele>169.7</ele>
        <time>2019-04-19T12:15:56Z</time>
      </trkpt>
      <trkpt lat="43.48292" lon="6.18707">
        <ele>169.8</ele>
        <time>2019-04-19T12:16:04Z</time>
      </trkpt>
      <trkpt lat="43.483" lon="6.18713">
        <ele>169.8</ele>
        <time>2019-04-19T12:16:14Z</time>
      </trkpt>
      <trkpt lat="43.48309" lon="6.18716">
        <ele>170.1</ele>
        <time>2019-04-19T12:16:23Z</time>
      </trkpt>
      <trkpt lat="43.48319" lon="6.18718">
        <ele>169.9</ele>
        <time>2019-04-19T12:16:32Z</time>
      </trkpt>
      <trkpt lat="43.48328" lon="6.18721">
        <ele>170.2</ele>
        <time>2019-04-19T12:16:41Z</time>
      </trkpt>
      <trkpt lat="43.48338" lon="6.18724">
        <ele>170.2</ele>
        <time>2019-04-19T12:16:50Z</time>
      </trkpt>
      <trkpt lat="43.48346" lon="6.18729">
        <ele>170.3</ele>
        <time>2019-04-19T12:16:59Z</time>
      </trkpt>
      <trkpt lat="43.48354" lon="6.18737">
        <ele>171.2</ele>
        <time>2019-04-19T12:17:13Z</time>
      </trkpt>
      <trkpt lat="43.48363" lon="6.18737">
        <ele>172.3</ele>
        <time>2019-04-19T12:17:33Z</time>
      </trkpt>
      <trkpt lat="43.48371" lon="6.18743">
        <ele>173.1</ele>
        <time>2019-04-19T12:18:21Z</time>
      </trkpt>
      <trkpt lat="43.48379" lon="6.18748">
        <ele>172.8</ele>
        <time>2019-04-19T12:18:31Z</time>
      </trkpt>
      <trkpt lat="43.48388" lon="6.18754">
        <ele>172.8</ele>
        <time>2019-04-19T12:18:46Z</time>
      </trkpt>
      <trkpt lat="43.48397" lon="6.18758">
        <ele>173.4</ele>
        <time>2019-04-19T12:18:56Z</time>
      </trkpt>
      <trkpt lat="43.48406" lon="6.18763">
        <ele>173.9</ele>
        <time>2019-04-19T12:19:06Z</time>
      </trkpt>
      <trkpt lat="43.48415" lon="6.18767">
        <ele>174.1</ele>
        <time>2019-04-19T12:19:19Z</time>
      </trkpt>
      <trkpt lat="43.48424" lon="6.18768">
        <ele>174.9</ele>
        <time>2019-04-19T12:19:29Z</time>
      </trkpt>
      <trkpt lat="43.48433" lon="6.18773">
        <ele>176.5</ele>
        <time>2019-04-19T12:19:42Z</time>
      </trkpt>
      <trkpt lat="43.48441" lon="6.18777">
        <ele>177.5</ele>
        <time>2019-04-19T12:19:57Z</time>
      </trkpt>
      <trkpt lat="43.48448" lon="6.18785">
        <ele>178.4</ele>
        <time>2019-04-19T12:20:08Z</time>
      </trkpt>
      <trkpt lat="43.48457" lon="6.1879">
        <ele>179.5</ele>
        <time>2019-04-19T12:20:18Z</time>
      </trkpt>
      <trkpt lat="43.48465" lon="6.18796">
        <ele>180.3</ele>
        <time>2019-04-19T12:20:29Z</time>
      </trkpt>
      <trkpt lat="43.48473" lon="6.18801">
        <ele>181.5</ele>
        <time>2019-04-19T12:20:42Z</time>
      </trkpt>
      <trkpt lat="43.48481" lon="6.18808">
        <ele>183.5</ele>
        <time>2019-04-19T12:20:57Z</time>
      </trkpt>
      <trkpt lat="43.48489" lon="6.18815">
        <ele>184.6</ele>
        <time>2019-04-19T12:21:11Z</time>
      </trkpt>
      <trkpt lat="43.48497" lon="6.18822">
        <ele>185.4</ele>
        <time>2019-04-19T12:21:23Z</time>
      </trkpt>
      <trkpt lat="43.48505" lon="6.18828">
        <ele>186.8</ele>
        <time>2019-04-19T12:21:37Z</time>
      </trkpt>
      <trkpt lat="43.48512" lon="6.18837">
        <ele>187.5</ele>
        <time>2019-04-19T12:21:47Z</time>
      </trkpt>
      <trkpt lat="43.48519" lon="6.18831">
        <ele>187.8</ele>
        <time>2019-04-19T12:22:21Z</time>
      </trkpt>
      <trkpt lat="43.48526" lon="6.18822">
        <ele>187.5</ele>
        <time>2019-04-19T12:22:35Z</time>
      </trkpt>
      <trkpt lat="43.48533" lon="6.18811">
        <ele>187.1</ele>
        <time>2019-04-19T12:22:49Z</time>
      </trkpt>
      <trkpt lat="43.48541" lon="6.18806">
        <ele>187.1</ele>
        <time>2019-04-19T12:23:29Z</time>
      </trkpt>
      <trkpt lat="43.48542" lon="6.18794">
        <ele>186.3</ele>
        <time>2019-04-19T12:24:51Z</time>
      </trkpt>
      <trkpt lat="43.4855" lon="6.18787">
        <ele>185.9</ele>
        <time>2019-04-19T12:25:02Z</time>
      </trkpt>
      <trkpt lat="43.48554" lon="6.18776">
        <ele>185.4</ele>
        <time>2019-04-19T12:25:17Z</time>
      </trkpt>
      <trkpt lat="43.48557" lon="6.18764">
        <ele>185.6</ele>
        <time>2019-04-19T12:25:28Z</time>
      </trkpt>
      <trkpt lat="43.48564" lon="6.18755">
        <ele>185.4</ele>
        <time>2019-04-19T12:25:39Z</time>
      </trkpt>
      <trkpt lat="43.4857" lon="6.18745">
        <ele>185.1</ele>
        <time>2019-04-19T12:25:49Z</time>
      </trkpt>
      <trkpt lat="43.48578" lon="6.18736">
        <ele>184.3</ele>
        <time>2019-04-19T12:26:00Z</time>
      </trkpt>
      <trkpt lat="43.48586" lon="6.1873">
        <ele>183.6</ele>
        <time>2019-04-19T12:26:12Z</time>
      </trkpt>
      <trkpt lat="43.48594" lon="6.18725">
        <ele>183.7</ele>
        <time>2019-04-19T12:26:24Z</time>
      </trkpt>
      <trkpt lat="43.48603" lon="6.18721">
        <ele>184.4</ele>
        <time>2019-04-19T12:26:49Z</time>
      </trkpt>
      <trkpt lat="43.48611" lon="6.18716">
        <ele>185.1</ele>
        <time>2019-04-19T12:27:25Z</time>
      </trkpt>
      <trkpt lat="43.4862" lon="6.18716">
        <ele>186.6</ele>
        <time>2019-04-19T12:27:46Z</time>
      </trkpt>
      <trkpt lat="43.4863" lon="6.18714">
        <ele>188</ele>
        <time>2019-04-19T12:28:47Z</time>
      </trkpt>
      <trkpt lat="43.48638" lon="6.18708">
        <ele>188.4</ele>
        <time>2019-04-19T12:29:07Z</time>
      </trkpt>
      <trkpt lat="43.48646" lon="6.18701">
        <ele>190.2</ele>
        <time>2019-04-19T12:29:52Z</time>
      </trkpt>
      <trkpt lat="43.4864" lon="6.18691">
        <ele>189.8</ele>
        <time>2019-04-19T12:34:26Z</time>
      </trkpt>
      <trkpt lat="43.48645" lon="6.1868">
        <ele>190.5</ele>
        <time>2019-04-19T12:34:41Z</time>
      </trkpt>
      <trkpt lat="43.48651" lon="6.1867">
        <ele>191.8</ele>
        <time>2019-04-19T12:34:57Z</time>
      </trkpt>
      <trkpt lat="43.4866" lon="6.18674">
        <ele>194</ele>
        <time>2019-04-19T12:35:21Z</time>
      </trkpt>
      <trkpt lat="43.48668" lon="6.18684">
        <ele>195</ele>
        <time>2019-04-19T12:35:33Z</time>
      </trkpt>
      <trkpt lat="43.48674" lon="6.18693">
        <ele>195.8</ele>
        <time>2019-04-19T12:35:44Z</time>
      </trkpt>
      <trkpt lat="43.48679" lon="6.18704">
        <ele>196.5</ele>
        <time>2019-04-19T12:35:55Z</time>
      </trkpt>
      <trkpt lat="43.48684" lon="6.18715">
        <ele>196.9</ele>
        <time>2019-04-19T12:36:07Z</time>
      </trkpt>
      <trkpt lat="43.48686" lon="6.18728">
        <ele>197.5</ele>
        <time>2019-04-19T12:36:17Z</time>
      </trkpt>
      <trkpt lat="43.48686" lon="6.18741">
        <ele>198</ele>
        <time>2019-04-19T12:36:28Z</time>
      </trkpt>
      <trkpt lat="43.48692" lon="6.1875">
        <ele>199.9</ele>
        <time>2019-04-19T12:36:49Z</time>
      </trkpt>
      <trkpt lat="43.487" lon="6.18758">
        <ele>201.5</ele>
        <time>2019-04-19T12:37:04Z</time>
      </trkpt>
      <trkpt lat="43.48705" lon="6.18769">
        <ele>203.7</ele>
        <time>2019-04-19T12:37:28Z</time>
      </trkpt>
      <trkpt lat="43.48713" lon="6.18764">
        <ele>205.6</ele>
        <time>2019-04-19T12:37:51Z</time>
      </trkpt>
      <trkpt lat="43.48719" lon="6.18754">
        <ele>207.3</ele>
        <time>2019-04-19T12:38:06Z</time>
      </trkpt>
      <trkpt lat="43.48718" lon="6.18741">
        <ele>207.9</ele>
        <time>2019-04-19T12:38:18Z</time>
      </trkpt>
      <trkpt lat="43.48719" lon="6.18729">
        <ele>207.8</ele>
        <time>2019-04-19T12:38:27Z</time>
      </trkpt>
      <trkpt lat="43.48719" lon="6.18716">
        <ele>207.7</ele>
        <time>2019-04-19T12:38:39Z</time>
      </trkpt>
      <trkpt lat="43.48722" lon="6.18704">
        <ele>208.5</ele>
        <time>2019-04-19T12:38:51Z</time>
      </trkpt>
      <trkpt lat="43.48724" lon="6.18691">
        <ele>209.2</ele>
        <time>2019-04-19T12:39:01Z</time>
      </trkpt>
      <trkpt lat="43.48728" lon="6.18679">
        <ele>210.1</ele>
        <time>2019-04-19T12:39:11Z</time>
      </trkpt>
      <trkpt lat="43.48732" lon="6.18668">
        <ele>210.7</ele>
        <time>2019-04-19T12:39:18Z</time>
      </trkpt>
      <trkpt lat="43.48738" lon="6.18657">
        <ele>211.3</ele>
        <time>2019-04-19T12:39:26Z</time>
      </trkpt>
      <trkpt lat="43.48746" lon="6.18648">
        <ele>211.8</ele>
        <time>2019-04-19T12:39:33Z</time>
      </trkpt>
      <trkpt lat="43.48755" lon="6.18643">
        <ele>212.6</ele>
        <time>2019-04-19T12:39:42Z</time>
      </trkpt>
      <trkpt lat="43.48764" lon="6.18641">
        <ele>214.2</ele>
        <time>2019-04-19T12:39:57Z</time>
      </trkpt>
      <trkpt lat="43.48772" lon="6.18646">
        <ele>216.2</ele>
        <time>2019-04-19T12:40:10Z</time>
      </trkpt>
      <trkpt lat="43.48781" lon="6.18653">
        <ele>217.3</ele>
        <time>2019-04-19T12:40:21Z</time>
      </trkpt>
      <trkpt lat="43.48789" lon="6.18659">
        <ele>218.6</ele>
        <time>2019-04-19T12:40:34Z</time>
      </trkpt>
      <trkpt lat="43.48798" lon="6.18662">
        <ele>220.2</ele>
        <time>2019-04-19T12:40:50Z</time>
      </trkpt>
      <trkpt lat="43.48805" lon="6.18671">
        <ele>221.1</ele>
        <time>2019-04-19T12:41:00Z</time>
      </trkpt>
      <trkpt lat="43.48811" lon="6.1868">
        <ele>222.1</ele>
        <time>2019-04-19T12:41:10Z</time>
      </trkpt>
      <trkpt lat="43.48813" lon="6.18693">
        <ele>224.2</ele>
        <time>2019-04-19T12:41:27Z</time>
      </trkpt>
      <trkpt lat="43.48818" lon="6.18704">
        <ele>225.1</ele>
        <time>2019-04-19T12:41:37Z</time>
      </trkpt>
      <trkpt lat="43.4882" lon="6.18716">
        <ele>226.2</ele>
        <time>2019-04-19T12:41:49Z</time>
      </trkpt>
      <trkpt lat="43.48824" lon="6.18728">
        <ele>226.5</ele>
        <time>2019-04-19T12:41:58Z</time>
      </trkpt>
      <trkpt lat="43.48825" lon="6.1874">
        <ele>227.7</ele>
        <time>2019-04-19T12:42:15Z</time>
      </trkpt>
      <trkpt lat="43.48832" lon="6.18749">
        <ele>228.6</ele>
        <time>2019-04-19T12:42:26Z</time>
      </trkpt>
      <trkpt lat="43.4884" lon="6.18755">
        <ele>230.6</ele>
        <time>2019-04-19T12:42:47Z</time>
      </trkpt>
      <trkpt lat="43.48848" lon="6.18762">
        <ele>232.2</ele>
        <time>2019-04-19T12:43:00Z</time>
      </trkpt>
      <trkpt lat="43.48856" lon="6.18769">
        <ele>233.3</ele>
        <time>2019-04-19T12:43:10Z</time>
      </trkpt>
      <trkpt lat="43.48866" lon="6.18767">
        <ele>234.6</ele>
        <time>2019-04-19T12:43:27Z</time>
      </trkpt>
      <trkpt lat="43.48875" lon="6.18761">
        <ele>235.3</ele>
        <time>2019-04-19T12:43:47Z</time>
      </trkpt>
      <trkpt lat="43.4888" lon="6.18749">
        <ele>235.6</ele>
        <time>2019-04-19T12:43:57Z</time>
      </trkpt>
      <trkpt lat="43.48885" lon="6.18738">
        <ele>234.9</ele>
        <time>2019-04-19T12:44:08Z</time>
      </trkpt>
      <trkpt lat="43.48885" lon="6.18726">
        <ele>234.3</ele>
        <time>2019-04-19T12:44:19Z</time>
      </trkpt>
      <trkpt lat="43.48886" lon="6.18713">
        <ele>234.4</ele>
        <time>2019-04-19T12:44:31Z</time>
      </trkpt>
      <trkpt lat="43.48878" lon="6.18704">
        <ele>232.8</ele>
        <time>2019-04-19T12:44:46Z</time>
      </trkpt>
      <trkpt lat="43.48874" lon="6.18693">
        <ele>232.2</ele>
        <time>2019-04-19T12:44:56Z</time>
      </trkpt>
      <trkpt lat="43.48871" lon="6.1868">
        <ele>231.5</ele>
        <time>2019-04-19T12:45:09Z</time>
      </trkpt>
      <trkpt lat="43.48868" lon="6.18668">
        <ele>230.7</ele>
        <time>2019-04-19T12:45:19Z</time>
      </trkpt>
      <trkpt lat="43.48865" lon="6.18657">
        <ele>229.4</ele>
        <time>2019-04-19T12:45:32Z</time>
      </trkpt>
      <trkpt lat="43.48867" lon="6.18644">
        <ele>230.2</ele>
        <time>2019-04-19T12:45:42Z</time>
      </trkpt>
      <trkpt lat="43.48869" lon="6.18631">
        <ele>229.6</ele>
        <time>2019-04-19T12:45:55Z</time>
      </trkpt>
      <trkpt lat="43.48875" lon="6.1862">
        <ele>229.5</ele>
        <time>2019-04-19T12:46:04Z</time>
      </trkpt>
      <trkpt lat="43.48878" lon="6.18606">
        <ele>230.2</ele>
        <time>2019-04-19T12:46:14Z</time>
      </trkpt>
      <trkpt lat="43.48882" lon="6.18595">
        <ele>229.9</ele>
        <time>2019-04-19T12:46:23Z</time>
      </trkpt>
      <trkpt lat="43.48886" lon="6.18582">
        <ele>229.2</ele>
        <time>2019-04-19T12:46:31Z</time>
      </trkpt>
      <trkpt lat="43.48895" lon="6.18575">
        <ele>228.9</ele>
        <time>2019-04-19T12:46:42Z</time>
      </trkpt>
      <trkpt lat="43.48904" lon="6.18571">
        <ele>229.1</ele>
        <time>2019-04-19T12:46:51Z</time>
      </trkpt>
      <trkpt lat="43.48909" lon="6.18559">
        <ele>228.6</ele>
        <time>2019-04-19T12:47:10Z</time>
      </trkpt>
      <trkpt lat="43.48911" lon="6.18547">
        <ele>228.1</ele>
        <time>2019-04-19T12:47:19Z</time>
      </trkpt>
      <trkpt lat="43.48915" lon="6.18536">
        <ele>228</ele>
        <time>2019-04-19T12:47:26Z</time>
      </trkpt>
      <trkpt lat="43.4892" lon="6.18526">
        <ele>228</ele>
        <time>2019-04-19T12:47:35Z</time>
      </trkpt>
      <trkpt lat="43.48929" lon="6.1852">
        <ele>227.7</ele>
        <time>2019-04-19T12:47:46Z</time>
      </trkpt>
      <trkpt lat="43.48935" lon="6.18512">
        <ele>227.3</ele>
        <time>2019-04-19T12:47:58Z</time>
      </trkpt>
      <trkpt lat="43.48944" lon="6.18507">
        <ele>227.4</ele>
        <time>2019-04-19T12:48:08Z</time>
      </trkpt>
      <trkpt lat="43.48953" lon="6.18505">
        <ele>227.3</ele>
        <time>2019-04-19T12:48:17Z</time>
      </trkpt>
      <trkpt lat="43.48955" lon="6.18517">
        <ele>228.4</ele>
        <time>2019-04-19T12:48:38Z</time>
      </trkpt>
      <trkpt lat="43.4896" lon="6.18529">
        <ele>229.4</ele>
        <time>2019-04-19T12:48:51Z</time>
      </trkpt>
      <trkpt lat="43.48967" lon="6.18538">
        <ele>230.3</ele>
        <time>2019-04-19T12:49:03Z</time>
      </trkpt>
      <trkpt lat="43.48972" lon="6.18548">
        <ele>230.9</ele>
        <time>2019-04-19T12:49:13Z</time>
      </trkpt>
      <trkpt lat="43.48978" lon="6.18558">
        <ele>231.4</ele>
        <time>2019-04-19T12:49:23Z</time>
      </trkpt>
      <trkpt lat="43.48985" lon="6.18568">
        <ele>232.3</ele>
        <time>2019-04-19T12:49:40Z</time>
      </trkpt>
      <trkpt lat="43.4899" lon="6.18578">
        <ele>232.8</ele>
        <time>2019-04-19T12:49:50Z</time>
      </trkpt>
      <trkpt lat="43.48994" lon="6.18589">
        <ele>232.9</ele>
        <time>2019-04-19T12:49:59Z</time>
      </trkpt>
      <trkpt lat="43.49" lon="6.18601">
        <ele>233</ele>
        <time>2019-04-19T12:50:11Z</time>
      </trkpt>
      <trkpt lat="43.49006" lon="6.18612">
        <ele>233.9</ele>
        <time>2019-04-19T12:50:25Z</time>
      </trkpt>
      <trkpt lat="43.49012" lon="6.18621">
        <ele>234.1</ele>
        <time>2019-04-19T12:50:31Z</time>
      </trkpt>
      <trkpt lat="43.49008" lon="6.18633">
        <ele>234.6</ele>
        <time>2019-04-19T12:50:42Z</time>
      </trkpt>
      <trkpt lat="43.4901" lon="6.18645">
        <ele>234.9</ele>
        <time>2019-04-19T12:50:56Z</time>
      </trkpt>
      <trkpt lat="43.49006" lon="6.18657">
        <ele>235.4</ele>
        <time>2019-04-19T12:51:07Z</time>
      </trkpt>
      <trkpt lat="43.49004" lon="6.18669">
        <ele>236</ele>
        <time>2019-04-19T12:51:17Z</time>
      </trkpt>
      <trkpt lat="43.49006" lon="6.18682">
        <ele>236.6</ele>
        <time>2019-04-19T12:51:27Z</time>
      </trkpt>
      <trkpt lat="43.49008" lon="6.18696">
        <ele>236.8</ele>
        <time>2019-04-19T12:51:37Z</time>
      </trkpt>
      <trkpt lat="43.49009" lon="6.18708">
        <ele>237.3</ele>
        <time>2019-04-19T12:51:45Z</time>
      </trkpt>
      <trkpt lat="43.49013" lon="6.1872">
        <ele>237.6</ele>
        <time>2019-04-19T12:51:52Z</time>
      </trkpt>
      <trkpt lat="43.49015" lon="6.18733">
        <ele>238.1</ele>
        <time>2019-04-19T12:52:01Z</time>
      </trkpt>
      <trkpt lat="43.49012" lon="6.18745">
        <ele>238</ele>
        <time>2019-04-19T12:52:14Z</time>
      </trkpt>
      <trkpt lat="43.4901" lon="6.18758">
        <ele>238.8</ele>
        <time>2019-04-19T12:52:25Z</time>
      </trkpt>
      <trkpt lat="43.49013" lon="6.1877">
        <ele>238.7</ele>
        <time>2019-04-19T12:52:43Z</time>
      </trkpt>
      <trkpt lat="43.49009" lon="6.18781">
        <ele>237.9</ele>
        <time>2019-04-19T12:53:55Z</time>
      </trkpt>
      <trkpt lat="43.49018" lon="6.18783">
        <ele>236.9</ele>
        <time>2019-04-19T12:55:18Z</time>
      </trkpt>
      <trkpt lat="43.49024" lon="6.18792">
        <ele>236.3</ele>
        <time>2019-04-19T12:55:39Z</time>
      </trkpt>
      <trkpt lat="43.49029" lon="6.18803">
        <ele>235.8</ele>
        <time>2019-04-19T12:55:51Z</time>
      </trkpt>
      <trkpt lat="43.49035" lon="6.18812">
        <ele>235.8</ele>
        <time>2019-04-19T12:56:03Z</time>
      </trkpt>
      <trkpt lat="43.49038" lon="6.18825">
        <ele>235.6</ele>
        <time>2019-04-19T12:56:15Z</time>
      </trkpt>
      <trkpt lat="43.49039" lon="6.1884">
        <ele>235.3</ele>
        <time>2019-04-19T12:56:25Z</time>
      </trkpt>
      <trkpt lat="43.49039" lon="6.18852">
        <ele>234.7</ele>
        <time>2019-04-19T12:56:37Z</time>
      </trkpt>
      <trkpt lat="43.49046" lon="6.18861">
        <ele>233.8</ele>
        <time>2019-04-19T12:56:50Z</time>
      </trkpt>
      <trkpt lat="43.4905" lon="6.18872">
        <ele>233.3</ele>
        <time>2019-04-19T12:57:02Z</time>
      </trkpt>
      <trkpt lat="43.49048" lon="6.18885">
        <ele>233.2</ele>
        <time>2019-04-19T12:57:12Z</time>
      </trkpt>
      <trkpt lat="43.49048" lon="6.18898">
        <ele>232.6</ele>
        <time>2019-04-19T12:57:24Z</time>
      </trkpt>
      <trkpt lat="43.49055" lon="6.18907">
        <ele>231.8</ele>
        <time>2019-04-19T12:57:37Z</time>
      </trkpt>
      <trkpt lat="43.49064" lon="6.18905">
        <ele>231.1</ele>
        <time>2019-04-19T12:57:46Z</time>
      </trkpt>
      <trkpt lat="43.49073" lon="6.18903">
        <ele>230.3</ele>
        <time>2019-04-19T12:57:58Z</time>
      </trkpt>
      <trkpt lat="43.4908" lon="6.18895">
        <ele>229.5</ele>
        <time>2019-04-19T12:58:11Z</time>
      </trkpt>
      <trkpt lat="43.49086" lon="6.18885">
        <ele>228.8</ele>
        <time>2019-04-19T12:58:22Z</time>
      </trkpt>
      <trkpt lat="43.49092" lon="6.18875">
        <ele>228.6</ele>
        <time>2019-04-19T12:58:32Z</time>
      </trkpt>
      <trkpt lat="43.49098" lon="6.18864">
        <ele>228.1</ele>
        <time>2019-04-19T12:58:40Z</time>
      </trkpt>
      <trkpt lat="43.49104" lon="6.18854">
        <ele>227.6</ele>
        <time>2019-04-19T12:58:51Z</time>
      </trkpt>
      <trkpt lat="43.49109" lon="6.18843">
        <ele>226.7</ele>
        <time>2019-04-19T12:59:00Z</time>
      </trkpt>
      <trkpt lat="43.49115" lon="6.18834">
        <ele>226.3</ele>
        <time>2019-04-19T12:59:08Z</time>
      </trkpt>
      <trkpt lat="43.4912" lon="6.18822">
        <ele>226.3</ele>
        <time>2019-04-19T12:59:18Z</time>
      </trkpt>
      <trkpt lat="43.49125" lon="6.1881">
        <ele>226.6</ele>
        <time>2019-04-19T12:59:26Z</time>
      </trkpt>
      <trkpt lat="43.49126" lon="6.18798">
        <ele>226.8</ele>
        <time>2019-04-19T12:59:33Z</time>
      </trkpt>
      <trkpt lat="43.49128" lon="6.18784">
        <ele>226.9</ele>
        <time>2019-04-19T12:59:40Z</time>
      </trkpt>
      <trkpt lat="43.49126" lon="6.18772">
        <ele>227.2</ele>
        <time>2019-04-19T12:59:52Z</time>
      </trkpt>
      <trkpt lat="43.49126" lon="6.18759">
        <ele>227.6</ele>
        <time>2019-04-19T13:00:04Z</time>
      </trkpt>
      <trkpt lat="43.49125" lon="6.18746">
        <ele>227.6</ele>
        <time>2019-04-19T13:00:14Z</time>
      </trkpt>
      <trkpt lat="43.49125" lon="6.18732">
        <ele>227.6</ele>
        <time>2019-04-19T13:00:24Z</time>
      </trkpt>
      <trkpt lat="43.49123" lon="6.1872">
        <ele>227.9</ele>
        <time>2019-04-19T13:00:32Z</time>
      </trkpt>
      <trkpt lat="43.49121" lon="6.18707">
        <ele>227.9</ele>
        <time>2019-04-19T13:00:41Z</time>
      </trkpt>
      <trkpt lat="43.49119" lon="6.18694">
        <ele>228</ele>
        <time>2019-04-19T13:00:50Z</time>
      </trkpt>
      <trkpt lat="43.4912" lon="6.18682">
        <ele>228</ele>
        <time>2019-04-19T13:01:00Z</time>
      </trkpt>
      <trkpt lat="43.49116" lon="6.1867">
        <ele>228.5</ele>
        <time>2019-04-19T13:01:13Z</time>
      </trkpt>
      <trkpt lat="43.49114" lon="6.18656">
        <ele>229.1</ele>
        <time>2019-04-19T13:01:23Z</time>
      </trkpt>
      <trkpt lat="43.49117" lon="6.18644">
        <ele>229.3</ele>
        <time>2019-04-19T13:01:32Z</time>
      </trkpt>
      <trkpt lat="43.49111" lon="6.18634">
        <ele>229</ele>
        <time>2019-04-19T13:01:45Z</time>
      </trkpt>
      <trkpt lat="43.49104" lon="6.18625">
        <ele>229.3</ele>
        <time>2019-04-19T13:01:56Z</time>
      </trkpt>
      <trkpt lat="43.49097" lon="6.18616">
        <ele>228.9</ele>
        <time>2019-04-19T13:02:05Z</time>
      </trkpt>
      <trkpt lat="43.49099" lon="6.18603">
        <ele>228.2</ele>
        <time>2019-04-19T13:02:19Z</time>
      </trkpt>
      <trkpt lat="43.49094" lon="6.18592">
        <ele>228.6</ele>
        <time>2019-04-19T13:02:33Z</time>
      </trkpt>
      <trkpt lat="43.49088" lon="6.1858">
        <ele>229.1</ele>
        <time>2019-04-19T13:02:42Z</time>
      </trkpt>
      <trkpt lat="43.49081" lon="6.18571">
        <ele>229.4</ele>
        <time>2019-04-19T13:02:51Z</time>
      </trkpt>
      <trkpt lat="43.49076" lon="6.1856">
        <ele>229.3</ele>
        <time>2019-04-19T13:03:00Z</time>
      </trkpt>
      <trkpt lat="43.49074" lon="6.18548">
        <ele>229.1</ele>
        <time>2019-04-19T13:03:08Z</time>
      </trkpt>
      <trkpt lat="43.49067" lon="6.18538">
        <ele>228.9</ele>
        <time>2019-04-19T13:03:19Z</time>
      </trkpt>
      <trkpt lat="43.4906" lon="6.18531">
        <ele>228.9</ele>
        <time>2019-04-19T13:03:27Z</time>
      </trkpt>
      <trkpt lat="43.49054" lon="6.18522">
        <ele>229.2</ele>
        <time>2019-04-19T13:03:38Z</time>
      </trkpt>
      <trkpt lat="43.49046" lon="6.18515">
        <ele>228.7</ele>
        <time>2019-04-19T13:03:46Z</time>
      </trkpt>
      <trkpt lat="43.49038" lon="6.18508">
        <ele>227.7</ele>
        <time>2019-04-19T13:03:55Z</time>
      </trkpt>
      <trkpt lat="43.4903" lon="6.18501">
        <ele>226.9</ele>
        <time>2019-04-19T13:04:03Z</time>
      </trkpt>
      <trkpt lat="43.49023" lon="6.18492">
        <ele>226.5</ele>
        <time>2019-04-19T13:04:11Z</time>
      </trkpt>
      <trkpt lat="43.4902" lon="6.18479">
        <ele>225.9</ele>
        <time>2019-04-19T13:04:21Z</time>
      </trkpt>
      <trkpt lat="43.49016" lon="6.18468">
        <ele>225.7</ele>
        <time>2019-04-19T13:04:29Z</time>
      </trkpt>
      <trkpt lat="43.4901" lon="6.18457">
        <ele>225.4</ele>
        <time>2019-04-19T13:04:38Z</time>
      </trkpt>
      <trkpt lat="43.49006" lon="6.18445">
        <ele>224.2</ele>
        <time>2019-04-19T13:04:47Z</time>
      </trkpt>
      <trkpt lat="43.49004" lon="6.18432">
        <ele>223.8</ele>
        <time>2019-04-19T13:04:55Z</time>
      </trkpt>
      <trkpt lat="43.49001" lon="6.1842">
        <ele>223.1</ele>
        <time>2019-04-19T13:05:08Z</time>
      </trkpt>
      <trkpt lat="43.48999" lon="6.18408">
        <ele>222.7</ele>
        <time>2019-04-19T13:05:25Z</time>
      </trkpt>
      <trkpt lat="43.48993" lon="6.18398">
        <ele>222.9</ele>
        <time>2019-04-19T13:05:44Z</time>
      </trkpt>
      <trkpt lat="43.48997" lon="6.18387">
        <ele>223.2</ele>
        <time>2019-04-19T13:06:25Z</time>
      </trkpt>
      <trkpt lat="43.49003" lon="6.18377">
        <ele>219.8</ele>
        <time>2019-04-19T13:10:56Z</time>
      </trkpt>
      <trkpt lat="43.49013" lon="6.18374">
        <ele>219.7</ele>
        <time>2019-04-19T13:11:08Z</time>
      </trkpt>
      <trkpt lat="43.49022" lon="6.18369">
        <ele>219.5</ele>
        <time>2019-04-19T13:11:18Z</time>
      </trkpt>
      <trkpt lat="43.49029" lon="6.18362">
        <ele>218.8</ele>
        <time>2019-04-19T13:11:26Z</time>
      </trkpt>
      <trkpt lat="43.49038" lon="6.18355">
        <ele>219.2</ele>
        <time>2019-04-19T13:11:35Z</time>
      </trkpt>
      <trkpt lat="43.49046" lon="6.18348">
        <ele>219.4</ele>
        <time>2019-04-19T13:11:43Z</time>
      </trkpt>
      <trkpt lat="43.49053" lon="6.1834">
        <ele>219.6</ele>
        <time>2019-04-19T13:11:51Z</time>
      </trkpt>
      <trkpt lat="43.49061" lon="6.18332">
        <ele>219.5</ele>
        <time>2019-04-19T13:11:59Z</time>
      </trkpt>
      <trkpt lat="43.49069" lon="6.18325">
        <ele>218.9</ele>
        <time>2019-04-19T13:12:08Z</time>
      </trkpt>
      <trkpt lat="43.49076" lon="6.18316">
        <ele>218.9</ele>
        <time>2019-04-19T13:12:16Z</time>
      </trkpt>
      <trkpt lat="43.49084" lon="6.18309">
        <ele>218.6</ele>
        <time>2019-04-19T13:12:24Z</time>
      </trkpt>
      <trkpt lat="43.49092" lon="6.18301">
        <ele>217.7</ele>
        <time>2019-04-19T13:12:35Z</time>
      </trkpt>
      <trkpt lat="43.49099" lon="6.18294">
        <ele>216.5</ele>
        <time>2019-04-19T13:12:43Z</time>
      </trkpt>
      <trkpt lat="43.49106" lon="6.18286">
        <ele>215.5</ele>
        <time>2019-04-19T13:12:52Z</time>
      </trkpt>
      <trkpt lat="43.49114" lon="6.1828">
        <ele>214.7</ele>
        <time>2019-04-19T13:13:07Z</time>
      </trkpt>
      <trkpt lat="43.4912" lon="6.1827">
        <ele>214</ele>
        <time>2019-04-19T13:13:40Z</time>
      </trkpt>
      <trkpt lat="43.49125" lon="6.1826">
        <ele>213.3</ele>
        <time>2019-04-19T13:13:55Z</time>
      </trkpt>
      <trkpt lat="43.49126" lon="6.18246">
        <ele>212.6</ele>
        <time>2019-04-19T13:14:13Z</time>
      </trkpt>
      <trkpt lat="43.49131" lon="6.18234">
        <ele>212.1</ele>
        <time>2019-04-19T13:14:23Z</time>
      </trkpt>
      <trkpt lat="43.49138" lon="6.18224">
        <ele>211.6</ele>
        <time>2019-04-19T13:14:30Z</time>
      </trkpt>
      <trkpt lat="43.49142" lon="6.18212">
        <ele>210.7</ele>
        <time>2019-04-19T13:14:41Z</time>
      </trkpt>
      <trkpt lat="43.49145" lon="6.18199">
        <ele>209.3</ele>
        <time>2019-04-19T13:14:52Z</time>
      </trkpt>
      <trkpt lat="43.49151" lon="6.18189">
        <ele>208.1</ele>
        <time>2019-04-19T13:15:02Z</time>
      </trkpt>
      <trkpt lat="43.4916" lon="6.18189">
        <ele>207.4</ele>
        <time>2019-04-19T13:15:13Z</time>
      </trkpt>
      <trkpt lat="43.49169" lon="6.18193">
        <ele>206.5</ele>
        <time>2019-04-19T13:15:26Z</time>
      </trkpt>
      <trkpt lat="43.49177" lon="6.18199">
        <ele>206</ele>
        <time>2019-04-19T13:15:36Z</time>
      </trkpt>
      <trkpt lat="43.49185" lon="6.18207">
        <ele>205.6</ele>
        <time>2019-04-19T13:15:46Z</time>
      </trkpt>
      <trkpt lat="43.49193" lon="6.18213">
        <ele>205.4</ele>
        <time>2019-04-19T13:15:55Z</time>
      </trkpt>
      <trkpt lat="43.49202" lon="6.1822">
        <ele>205.2</ele>
        <time>2019-04-19T13:16:06Z</time>
      </trkpt>
      <trkpt lat="43.4921" lon="6.18226">
        <ele>204.8</ele>
        <time>2019-04-19T13:16:15Z</time>
      </trkpt>
      <trkpt lat="43.49219" lon="6.18228">
        <ele>204.5</ele>
        <time>2019-04-19T13:16:25Z</time>
      </trkpt>
      <trkpt lat="43.49229" lon="6.18227">
        <ele>203.8</ele>
        <time>2019-04-19T13:16:34Z</time>
      </trkpt>
      <trkpt lat="43.49237" lon="6.1822">
        <ele>203.4</ele>
        <time>2019-04-19T13:16:44Z</time>
      </trkpt>
      <trkpt lat="43.49245" lon="6.18214">
        <ele>203</ele>
        <time>2019-04-19T13:16:57Z</time>
      </trkpt>
      <trkpt lat="43.4925" lon="6.18203">
        <ele>201.3</ele>
        <time>2019-04-19T13:17:12Z</time>
      </trkpt>
      <trkpt lat="43.49256" lon="6.18193">
        <ele>200.9</ele>
        <time>2019-04-19T13:17:20Z</time>
      </trkpt>
      <trkpt lat="43.4926" lon="6.18181">
        <ele>200.5</ele>
        <time>2019-04-19T13:17:32Z</time>
      </trkpt>
      <trkpt lat="43.49263" lon="6.18169">
        <ele>200.1</ele>
        <time>2019-04-19T13:17:44Z</time>
      </trkpt>
      <trkpt lat="43.49267" lon="6.18158">
        <ele>199.7</ele>
        <time>2019-04-19T13:17:52Z</time>
      </trkpt>
      <trkpt lat="43.49272" lon="6.18147">
        <ele>198.8</ele>
        <time>2019-04-19T13:18:02Z</time>
      </trkpt>
      <trkpt lat="43.49275" lon="6.18134">
        <ele>198.3</ele>
        <time>2019-04-19T13:18:10Z</time>
      </trkpt>
      <trkpt lat="43.4928" lon="6.18124">
        <ele>197.6</ele>
        <time>2019-04-19T13:18:18Z</time>
      </trkpt>
      <trkpt lat="43.49282" lon="6.18112">
        <ele>196.7</ele>
        <time>2019-04-19T13:18:25Z</time>
      </trkpt>
      <trkpt lat="43.49288" lon="6.181">
        <ele>196.3</ele>
        <time>2019-04-19T13:18:31Z</time>
      </trkpt>
      <trkpt lat="43.4929" lon="6.18087">
        <ele>195.9</ele>
        <time>2019-04-19T13:18:39Z</time>
      </trkpt>
      <trkpt lat="43.49293" lon="6.18075">
        <ele>195.3</ele>
        <time>2019-04-19T13:18:50Z</time>
      </trkpt>
      <trkpt lat="43.49299" lon="6.18065">
        <ele>195.6</ele>
        <time>2019-04-19T13:19:00Z</time>
      </trkpt>
      <trkpt lat="43.49299" lon="6.18052">
        <ele>195.5</ele>
        <time>2019-04-19T13:19:09Z</time>
      </trkpt>
      <trkpt lat="43.49302" lon="6.1804">
        <ele>195.9</ele>
        <time>2019-04-19T13:19:16Z</time>
      </trkpt>
      <trkpt lat="43.49305" lon="6.18027">
        <ele>195.7</ele>
        <time>2019-04-19T13:19:23Z</time>
      </trkpt>
      <trkpt lat="43.49306" lon="6.18013">
        <ele>195</ele>
        <time>2019-04-19T13:19:32Z</time>
      </trkpt>
      <trkpt lat="43.4931" lon="6.18001">
        <ele>194.1</ele>
        <time>2019-04-19T13:19:40Z</time>
      </trkpt>
      <trkpt lat="43.49311" lon="6.17988">
        <ele>193.5</ele>
        <time>2019-04-19T13:19:48Z</time>
      </trkpt>
      <trkpt lat="43.49314" lon="6.17976">
        <ele>193.2</ele>
        <time>2019-04-19T13:19:56Z</time>
      </trkpt>
      <trkpt lat="43.49317" lon="6.17964">
        <ele>193.3</ele>
        <time>2019-04-19T13:20:05Z</time>
      </trkpt>
      <trkpt lat="43.4932" lon="6.17951">
        <ele>193.3</ele>
        <time>2019-04-19T13:20:15Z</time>
      </trkpt>
      <trkpt lat="43.49321" lon="6.17938">
        <ele>194.8</ele>
        <time>2019-04-19T13:20:29Z</time>
      </trkpt>
      <trkpt lat="43.49324" lon="6.17926">
        <ele>196.8</ele>
        <time>2019-04-19T13:20:40Z</time>
      </trkpt>
      <trkpt lat="43.49322" lon="6.17914">
        <ele>198.9</ele>
        <time>2019-04-19T13:20:59Z</time>
      </trkpt>
      <trkpt lat="43.49317" lon="6.17903">
        <ele>200.5</ele>
        <time>2019-04-19T13:21:13Z</time>
      </trkpt>
      <trkpt lat="43.49311" lon="6.17894">
        <ele>202.3</ele>
        <time>2019-04-19T13:21:25Z</time>
      </trkpt>
      <trkpt lat="43.49306" lon="6.17883">
        <ele>204</ele>
        <time>2019-04-19T13:21:40Z</time>
      </trkpt>
      <trkpt lat="43.49299" lon="6.17872">
        <ele>205.2</ele>
        <time>2019-04-19T13:21:51Z</time>
      </trkpt>
      <trkpt lat="43.49291" lon="6.17866">
        <ele>206.3</ele>
        <time>2019-04-19T13:22:02Z</time>
      </trkpt>
      <trkpt lat="43.49284" lon="6.17857">
        <ele>207.8</ele>
        <time>2019-04-19T13:22:13Z</time>
      </trkpt>
      <trkpt lat="43.49278" lon="6.17847">
        <ele>208.5</ele>
        <time>2019-04-19T13:22:24Z</time>
      </trkpt>
      <trkpt lat="43.49272" lon="6.17838">
        <ele>209.5</ele>
        <time>2019-04-19T13:22:35Z</time>
      </trkpt>
      <trkpt lat="43.49267" lon="6.17827">
        <ele>210.6</ele>
        <time>2019-04-19T13:22:55Z</time>
      </trkpt>
      <trkpt lat="43.49269" lon="6.17814">
        <ele>211</ele>
        <time>2019-04-19T13:23:10Z</time>
      </trkpt>
      <trkpt lat="43.49273" lon="6.17802">
        <ele>211.4</ele>
        <time>2019-04-19T13:23:19Z</time>
      </trkpt>
      <trkpt lat="43.4928" lon="6.17792">
        <ele>211.9</ele>
        <time>2019-04-19T13:23:29Z</time>
      </trkpt>
      <trkpt lat="43.49288" lon="6.17784">
        <ele>212.1</ele>
        <time>2019-04-19T13:23:37Z</time>
      </trkpt>
      <trkpt lat="43.49297" lon="6.17778">
        <ele>212.3</ele>
        <time>2019-04-19T13:23:49Z</time>
      </trkpt>
      <trkpt lat="43.49304" lon="6.17768">
        <ele>212.2</ele>
        <time>2019-04-19T13:24:00Z</time>
      </trkpt>
      <trkpt lat="43.49308" lon="6.17756">
        <ele>212.2</ele>
        <time>2019-04-19T13:24:12Z</time>
      </trkpt>
      <trkpt lat="43.49315" lon="6.17746">
        <ele>212.1</ele>
        <time>2019-04-19T13:24:19Z</time>
      </trkpt>
      <trkpt lat="43.4932" lon="6.17736">
        <ele>212</ele>
        <time>2019-04-19T13:24:28Z</time>
      </trkpt>
      <trkpt lat="43.49327" lon="6.17727">
        <ele>212</ele>
        <time>2019-04-19T13:24:38Z</time>
      </trkpt>
      <trkpt lat="43.49329" lon="6.17714">
        <ele>212.9</ele>
        <time>2019-04-19T13:24:53Z</time>
      </trkpt>
      <trkpt lat="43.49336" lon="6.17704">
        <ele>213.3</ele>
        <time>2019-04-19T13:25:01Z</time>
      </trkpt>
      <trkpt lat="43.49341" lon="6.17693">
        <ele>213.9</ele>
        <time>2019-04-19T13:25:09Z</time>
      </trkpt>
      <trkpt lat="43.49336" lon="6.17683">
        <ele>215.2</ele>
        <time>2019-04-19T13:25:21Z</time>
      </trkpt>
      <trkpt lat="43.4933" lon="6.17672">
        <ele>215.7</ele>
        <time>2019-04-19T13:25:32Z</time>
      </trkpt>
      <trkpt lat="43.49321" lon="6.17668">
        <ele>216.3</ele>
        <time>2019-04-19T13:25:42Z</time>
      </trkpt>
      <trkpt lat="43.49316" lon="6.17658">
        <ele>217.1</ele>
        <time>2019-04-19T13:25:51Z</time>
      </trkpt>
      <trkpt lat="43.4931" lon="6.17648">
        <ele>217.6</ele>
        <time>2019-04-19T13:26:00Z</time>
      </trkpt>
      <trkpt lat="43.49303" lon="6.17641">
        <ele>218.6</ele>
        <time>2019-04-19T13:26:22Z</time>
      </trkpt>
      <trkpt lat="43.49294" lon="6.17636">
        <ele>218.4</ele>
        <time>2019-04-19T13:26:38Z</time>
      </trkpt>
      <trkpt lat="43.49285" lon="6.1763">
        <ele>217.9</ele>
        <time>2019-04-19T13:26:49Z</time>
      </trkpt>
      <trkpt lat="43.49277" lon="6.17622">
        <ele>217.8</ele>
        <time>2019-04-19T13:26:58Z</time>
      </trkpt>
      <trkpt lat="43.4927" lon="6.17614">
        <ele>218.1</ele>
        <time>2019-04-19T13:27:09Z</time>
      </trkpt>
      <trkpt lat="43.49263" lon="6.17604">
        <ele>218.1</ele>
        <time>2019-04-19T13:27:19Z</time>
      </trkpt>
      <trkpt lat="43.49257" lon="6.17595">
        <ele>218.8</ele>
        <time>2019-04-19T13:27:31Z</time>
      </trkpt>
      <trkpt lat="43.49249" lon="6.17587">
        <ele>219.5</ele>
        <time>2019-04-19T13:27:38Z</time>
      </trkpt>
      <trkpt lat="43.4924" lon="6.17582">
        <ele>219.5</ele>
        <time>2019-04-19T13:27:46Z</time>
      </trkpt>
      <trkpt lat="43.49231" lon="6.17578">
        <ele>219.4</ele>
        <time>2019-04-19T13:27:55Z</time>
      </trkpt>
      <trkpt lat="43.49222" lon="6.17576">
        <ele>218.9</ele>
        <time>2019-04-19T13:28:08Z</time>
      </trkpt>
      <trkpt lat="43.49212" lon="6.17572">
        <ele>218.7</ele>
        <time>2019-04-19T13:28:18Z</time>
      </trkpt>
      <trkpt lat="43.49203" lon="6.17568">
        <ele>218.5</ele>
        <time>2019-04-19T13:28:28Z</time>
      </trkpt>
      <trkpt lat="43.49194" lon="6.17564">
        <ele>218.4</ele>
        <time>2019-04-19T13:28:39Z</time>
      </trkpt>
      <trkpt lat="43.49184" lon="6.17562">
        <ele>218.3</ele>
        <time>2019-04-19T13:28:46Z</time>
      </trkpt>
      <trkpt lat="43.49176" lon="6.17558">
        <ele>218.5</ele>
        <time>2019-04-19T13:28:56Z</time>
      </trkpt>
      <trkpt lat="43.49166" lon="6.17554">
        <ele>219.4</ele>
        <time>2019-04-19T13:29:06Z</time>
      </trkpt>
      <trkpt lat="43.49157" lon="6.17551">
        <ele>219.2</ele>
        <time>2019-04-19T13:29:15Z</time>
      </trkpt>
      <trkpt lat="43.49147" lon="6.17548">
        <ele>219.4</ele>
        <time>2019-04-19T13:29:23Z</time>
      </trkpt>
      <trkpt lat="43.49138" lon="6.17544">
        <ele>219.9</ele>
        <time>2019-04-19T13:29:34Z</time>
      </trkpt>
      <trkpt lat="43.4913" lon="6.17541">
        <ele>220</ele>
        <time>2019-04-19T13:29:41Z</time>
      </trkpt>
      <trkpt lat="43.49121" lon="6.17538">
        <ele>220.5</ele>
        <time>2019-04-19T13:29:49Z</time>
      </trkpt>
      <trkpt lat="43.49114" lon="6.17529">
        <ele>220.8</ele>
        <time>2019-04-19T13:30:54Z</time>
      </trkpt>
      <trkpt lat="43.49114" lon="6.17517">
        <ele>218.5</ele>
        <time>2019-04-19T13:34:45Z</time>
      </trkpt>
      <trkpt lat="43.49106" lon="6.17512">
        <ele>218.7</ele>
        <time>2019-04-19T13:34:58Z</time>
      </trkpt>
      <trkpt lat="43.49111" lon="6.17501">
        <ele>219.4</ele>
        <time>2019-04-19T13:35:11Z</time>
      </trkpt>
      <trkpt lat="43.49115" lon="6.17488">
        <ele>220.3</ele>
        <time>2019-04-19T13:35:27Z</time>
      </trkpt>
      <trkpt lat="43.49119" lon="6.17476">
        <ele>221</ele>
        <time>2019-04-19T13:35:37Z</time>
      </trkpt>
      <trkpt lat="43.49126" lon="6.17468">
        <ele>221.2</ele>
        <time>2019-04-19T13:35:48Z</time>
      </trkpt>
      <trkpt lat="43.49134" lon="6.17459">
        <ele>221.5</ele>
        <time>2019-04-19T13:36:06Z</time>
      </trkpt>
      <trkpt lat="43.49131" lon="6.17446">
        <ele>220.1</ele>
        <time>2019-04-19T13:37:34Z</time>
      </trkpt>
      <trkpt lat="43.49138" lon="6.17436">
        <ele>220.7</ele>
        <time>2019-04-19T13:37:47Z</time>
      </trkpt>
      <trkpt lat="43.49144" lon="6.17426">
        <ele>220.6</ele>
        <time>2019-04-19T13:37:57Z</time>
      </trkpt>
      <trkpt lat="43.4915" lon="6.17415">
        <ele>220.6</ele>
        <time>2019-04-19T13:38:07Z</time>
      </trkpt>
      <trkpt lat="43.49156" lon="6.17406">
        <ele>220.1</ele>
        <time>2019-04-19T13:38:17Z</time>
      </trkpt>
      <trkpt lat="43.4916" lon="6.17394">
        <ele>219.5</ele>
        <time>2019-04-19T13:38:29Z</time>
      </trkpt>
      <trkpt lat="43.49163" lon="6.17382">
        <ele>219.5</ele>
        <time>2019-04-19T13:38:38Z</time>
      </trkpt>
      <trkpt lat="43.49167" lon="6.1737">
        <ele>219</ele>
        <time>2019-04-19T13:38:47Z</time>
      </trkpt>
      <trkpt lat="43.49172" lon="6.17358">
        <ele>218.7</ele>
        <time>2019-04-19T13:38:55Z</time>
      </trkpt>
      <trkpt lat="43.49177" lon="6.17347">
        <ele>218.3</ele>
        <time>2019-04-19T13:39:07Z</time>
      </trkpt>
      <trkpt lat="43.49182" lon="6.17335">
        <ele>217.5</ele>
        <time>2019-04-19T13:39:19Z</time>
      </trkpt>
      <trkpt lat="43.49186" lon="6.17324">
        <ele>216.5</ele>
        <time>2019-04-19T13:39:30Z</time>
      </trkpt>
      <trkpt lat="43.49189" lon="6.17312">
        <ele>215.6</ele>
        <time>2019-04-19T13:39:42Z</time>
      </trkpt>
      <trkpt lat="43.49192" lon="6.17299">
        <ele>215.2</ele>
        <time>2019-04-19T13:39:50Z</time>
      </trkpt>
      <trkpt lat="43.49199" lon="6.17289">
        <ele>214.8</ele>
        <time>2019-04-19T13:39:58Z</time>
      </trkpt>
      <trkpt lat="43.49203" lon="6.17277">
        <ele>214.1</ele>
        <time>2019-04-19T13:40:07Z</time>
      </trkpt>
      <trkpt lat="43.49197" lon="6.17266">
        <ele>213</ele>
        <time>2019-04-19T13:40:18Z</time>
      </trkpt>
      <trkpt lat="43.4919" lon="6.17257">
        <ele>212</ele>
        <time>2019-04-19T13:40:30Z</time>
      </trkpt>
      <trkpt lat="43.49182" lon="6.17249">
        <ele>211.6</ele>
        <time>2019-04-19T13:40:39Z</time>
      </trkpt>
      <trkpt lat="43.49173" lon="6.17244">
        <ele>210.5</ele>
        <time>2019-04-19T13:40:48Z</time>
      </trkpt>
      <trkpt lat="43.49164" lon="6.17242">
        <ele>209.6</ele>
        <time>2019-04-19T13:41:02Z</time>
      </trkpt>
      <trkpt lat="43.49155" lon="6.17245">
        <ele>209.4</ele>
        <time>2019-04-19T13:41:12Z</time>
      </trkpt>
      <trkpt lat="43.49146" lon="6.17252">
        <ele>208</ele>
        <time>2019-04-19T13:41:22Z</time>
      </trkpt>
      <trkpt lat="43.49138" lon="6.17258">
        <ele>207</ele>
        <time>2019-04-19T13:41:32Z</time>
      </trkpt>
      <trkpt lat="43.4913" lon="6.17266">
        <ele>205.8</ele>
        <time>2019-04-19T13:41:41Z</time>
      </trkpt>
      <trkpt lat="43.49124" lon="6.17275">
        <ele>204.9</ele>
        <time>2019-04-19T13:41:52Z</time>
      </trkpt>
      <trkpt lat="43.4912" lon="6.17286">
        <ele>204.6</ele>
        <time>2019-04-19T13:42:02Z</time>
      </trkpt>
      <trkpt lat="43.49117" lon="6.17299">
        <ele>204.4</ele>
        <time>2019-04-19T13:42:13Z</time>
      </trkpt>
      <trkpt lat="43.49113" lon="6.1731">
        <ele>203.8</ele>
        <time>2019-04-19T13:42:23Z</time>
      </trkpt>
      <trkpt lat="43.4911" lon="6.17323">
        <ele>202.7</ele>
        <time>2019-04-19T13:42:34Z</time>
      </trkpt>
      <trkpt lat="43.49107" lon="6.17334">
        <ele>201.3</ele>
        <time>2019-04-19T13:42:45Z</time>
      </trkpt>
      <trkpt lat="43.49102" lon="6.17345">
        <ele>200.1</ele>
        <time>2019-04-19T13:42:57Z</time>
      </trkpt>
      <trkpt lat="43.49096" lon="6.17355">
        <ele>199.4</ele>
        <time>2019-04-19T13:43:08Z</time>
      </trkpt>
      <trkpt lat="43.49089" lon="6.17363">
        <ele>198.5</ele>
        <time>2019-04-19T13:43:20Z</time>
      </trkpt>
      <trkpt lat="43.4908" lon="6.17366">
        <ele>197.6</ele>
        <time>2019-04-19T13:43:34Z</time>
      </trkpt>
      <trkpt lat="43.49071" lon="6.17365">
        <ele>196.6</ele>
        <time>2019-04-19T13:43:47Z</time>
      </trkpt>
      <trkpt lat="43.49062" lon="6.17359">
        <ele>195.5</ele>
        <time>2019-04-19T13:44:03Z</time>
      </trkpt>
      <trkpt lat="43.49055" lon="6.17351">
        <ele>194.8</ele>
        <time>2019-04-19T13:44:13Z</time>
      </trkpt>
      <trkpt lat="43.49046" lon="6.17344">
        <ele>194</ele>
        <time>2019-04-19T13:44:23Z</time>
      </trkpt>
      <trkpt lat="43.49037" lon="6.17338">
        <ele>193.3</ele>
        <time>2019-04-19T13:44:34Z</time>
      </trkpt>
      <trkpt lat="43.49029" lon="6.17334">
        <ele>192.2</ele>
        <time>2019-04-19T13:44:44Z</time>
      </trkpt>
      <trkpt lat="43.49019" lon="6.17331">
        <ele>191.3</ele>
        <time>2019-04-19T13:44:55Z</time>
      </trkpt>
      <trkpt lat="43.4901" lon="6.17331">
        <ele>190.2</ele>
        <time>2019-04-19T13:45:05Z</time>
      </trkpt>
      <trkpt lat="43.49" lon="6.17333">
        <ele>189.5</ele>
        <time>2019-04-19T13:45:13Z</time>
      </trkpt>
      <trkpt lat="43.48991" lon="6.17337">
        <ele>188.6</ele>
        <time>2019-04-19T13:45:23Z</time>
      </trkpt>
      <trkpt lat="43.48982" lon="6.17341">
        <ele>187.7</ele>
        <time>2019-04-19T13:45:34Z</time>
      </trkpt>
      <trkpt lat="43.48972" lon="6.17345">
        <ele>187.1</ele>
        <time>2019-04-19T13:45:45Z</time>
      </trkpt>
      <trkpt lat="43.48963" lon="6.17343">
        <ele>185.6</ele>
        <time>2019-04-19T13:45:58Z</time>
      </trkpt>
      <trkpt lat="43.48953" lon="6.17344">
        <ele>184.9</ele>
        <time>2019-04-19T13:46:10Z</time>
      </trkpt>
      <trkpt lat="43.48943" lon="6.17344">
        <ele>184.5</ele>
        <time>2019-04-19T13:46:19Z</time>
      </trkpt>
      <trkpt lat="43.48934" lon="6.17346">
        <ele>183.9</ele>
        <time>2019-04-19T13:46:28Z</time>
      </trkpt>
      <trkpt lat="43.48924" lon="6.17349">
        <ele>183.5</ele>
        <time>2019-04-19T13:46:39Z</time>
      </trkpt>
      <trkpt lat="43.48915" lon="6.1735">
        <ele>183</ele>
        <time>2019-04-19T13:46:48Z</time>
      </trkpt>
      <trkpt lat="43.48907" lon="6.17353">
        <ele>182</ele>
        <time>2019-04-19T13:46:56Z</time>
      </trkpt>
      <trkpt lat="43.48898" lon="6.17357">
        <ele>180.3</ele>
        <time>2019-04-19T13:47:05Z</time>
      </trkpt>
      <trkpt lat="43.48889" lon="6.17362">
        <ele>179.6</ele>
        <time>2019-04-19T13:47:13Z</time>
      </trkpt>
      <trkpt lat="43.4888" lon="6.17367">
        <ele>178.6</ele>
        <time>2019-04-19T13:47:22Z</time>
      </trkpt>
      <trkpt lat="43.48872" lon="6.17374">
        <ele>177.6</ele>
        <time>2019-04-19T13:47:31Z</time>
      </trkpt>
      <trkpt lat="43.48864" lon="6.17381">
        <ele>176.8</ele>
        <time>2019-04-19T13:47:40Z</time>
      </trkpt>
      <trkpt lat="43.48855" lon="6.17387">
        <ele>175.9</ele>
        <time>2019-04-19T13:47:49Z</time>
      </trkpt>
      <trkpt lat="43.48848" lon="6.17396">
        <ele>174.5</ele>
        <time>2019-04-19T13:47:58Z</time>
      </trkpt>
      <trkpt lat="43.48841" lon="6.17404">
        <ele>173.9</ele>
        <time>2019-04-19T13:48:05Z</time>
      </trkpt>
      <trkpt lat="43.48835" lon="6.17413">
        <ele>173.3</ele>
        <time>2019-04-19T13:48:13Z</time>
      </trkpt>
      <trkpt lat="43.48832" lon="6.17426">
        <ele>172.4</ele>
        <time>2019-04-19T13:48:22Z</time>
      </trkpt>
      <trkpt lat="43.4883" lon="6.17439">
        <ele>172</ele>
        <time>2019-04-19T13:48:32Z</time>
      </trkpt>
      <trkpt lat="43.48829" lon="6.17452">
        <ele>171.6</ele>
        <time>2019-04-19T13:48:44Z</time>
      </trkpt>
      <trkpt lat="43.48831" lon="6.17464">
        <ele>170.7</ele>
        <time>2019-04-19T13:48:53Z</time>
      </trkpt>
      <trkpt lat="43.48832" lon="6.17477">
        <ele>169.5</ele>
        <time>2019-04-19T13:49:04Z</time>
      </trkpt>
      <trkpt lat="43.48834" lon="6.17489">
        <ele>167.7</ele>
        <time>2019-04-19T13:49:16Z</time>
      </trkpt>
      <trkpt lat="43.48832" lon="6.17502">
        <ele>166.3</ele>
        <time>2019-04-19T13:49:29Z</time>
      </trkpt>
      <trkpt lat="43.48834" lon="6.17514">
        <ele>165.4</ele>
        <time>2019-04-19T13:49:44Z</time>
      </trkpt>
      <trkpt lat="43.48825" lon="6.17509">
        <ele>163</ele>
        <time>2019-04-19T13:50:08Z</time>
      </trkpt>
      <trkpt lat="43.48816" lon="6.17503">
        <ele>161.9</ele>
        <time>2019-04-19T13:50:17Z</time>
      </trkpt>
      <trkpt lat="43.48807" lon="6.17502">
        <ele>160.5</ele>
        <time>2019-04-19T13:50:28Z</time>
      </trkpt>
      <trkpt lat="43.48798" lon="6.17502">
        <ele>158.9</ele>
        <time>2019-04-19T13:50:40Z</time>
      </trkpt>
      <trkpt lat="43.48789" lon="6.175">
        <ele>157.8</ele>
        <time>2019-04-19T13:50:51Z</time>
      </trkpt>
      <trkpt lat="43.48782" lon="6.17491">
        <ele>157.1</ele>
        <time>2019-04-19T13:51:03Z</time>
      </trkpt>
      <trkpt lat="43.48775" lon="6.17485">
        <ele>156.4</ele>
        <time>2019-04-19T13:51:14Z</time>
      </trkpt>
      <trkpt lat="43.48766" lon="6.17482">
        <ele>155.9</ele>
        <time>2019-04-19T13:51:20Z</time>
      </trkpt>
      <trkpt lat="43.48756" lon="6.17478">
        <ele>155.6</ele>
        <time>2019-04-19T13:51:27Z</time>
      </trkpt>
      <trkpt lat="43.48748" lon="6.17471">
        <ele>155.1</ele>
        <time>2019-04-19T13:51:35Z</time>
      </trkpt>
      <trkpt lat="43.48742" lon="6.17461">
        <ele>154.6</ele>
        <time>2019-04-19T13:51:44Z</time>
      </trkpt>
      <trkpt lat="43.48734" lon="6.17456">
        <ele>153.7</ele>
        <time>2019-04-19T13:51:56Z</time>
      </trkpt>
      <trkpt lat="43.48723" lon="6.17452">
        <ele>153</ele>
        <time>2019-04-19T13:52:04Z</time>
      </trkpt>
      <trkpt lat="43.48715" lon="6.17448">
        <ele>151.9</ele>
        <time>2019-04-19T13:52:17Z</time>
      </trkpt>
      <trkpt lat="43.48706" lon="6.17444">
        <ele>150.5</ele>
        <time>2019-04-19T13:52:28Z</time>
      </trkpt>
      <trkpt lat="43.48697" lon="6.17441">
        <ele>149.3</ele>
        <time>2019-04-19T13:52:44Z</time>
      </trkpt>
      <trkpt lat="43.48688" lon="6.1744">
        <ele>148.5</ele>
        <time>2019-04-19T13:55:23Z</time>
      </trkpt>
      <trkpt lat="43.4868" lon="6.17449">
        <ele>147.9</ele>
        <time>2019-04-19T13:55:49Z</time>
      </trkpt>
      <trkpt lat="43.48673" lon="6.17457">
        <ele>148</ele>
        <time>2019-04-19T13:55:58Z</time>
      </trkpt>
      <trkpt lat="43.48662" lon="6.17457">
        <ele>148</ele>
        <time>2019-04-19T13:56:12Z</time>
      </trkpt>
      <trkpt lat="43.48653" lon="6.17461">
        <ele>147.8</ele>
        <time>2019-04-19T13:56:22Z</time>
      </trkpt>
      <trkpt lat="43.48646" lon="6.17469">
        <ele>148.1</ele>
        <time>2019-04-19T13:56:34Z</time>
      </trkpt>
      <trkpt lat="43.48636" lon="6.1747">
        <ele>148</ele>
        <time>2019-04-19T13:56:43Z</time>
      </trkpt>
      <trkpt lat="43.48626" lon="6.17472">
        <ele>147.8</ele>
        <time>2019-04-19T13:56:52Z</time>
      </trkpt>
      <trkpt lat="43.48616" lon="6.17471">
        <ele>147.8</ele>
        <time>2019-04-19T13:56:57Z</time>
      </trkpt>
      <trkpt lat="43.48608" lon="6.17478">
        <ele>147.5</ele>
        <time>2019-04-19T13:57:07Z</time>
      </trkpt>
      <trkpt lat="43.48599" lon="6.17485">
        <ele>147.1</ele>
        <time>2019-04-19T13:57:16Z</time>
      </trkpt>
      <trkpt lat="43.48592" lon="6.17493">
        <ele>146.8</ele>
        <time>2019-04-19T13:57:26Z</time>
      </trkpt>
      <trkpt lat="43.48585" lon="6.17501">
        <ele>146.5</ele>
        <time>2019-04-19T13:57:35Z</time>
      </trkpt>
      <trkpt lat="43.48575" lon="6.17505">
        <ele>146.3</ele>
        <time>2019-04-19T13:57:46Z</time>
      </trkpt>
      <trkpt lat="43.48566" lon="6.17504">
        <ele>146.6</ele>
        <time>2019-04-19T13:57:53Z</time>
      </trkpt>
      <trkpt lat="43.48557" lon="6.17505">
        <ele>146.6</ele>
        <time>2019-04-19T13:58:01Z</time>
      </trkpt>
      <trkpt lat="43.48547" lon="6.17508">
        <ele>147.1</ele>
        <time>2019-04-19T13:58:12Z</time>
      </trkpt>
      <trkpt lat="43.48538" lon="6.17506">
        <ele>147.8</ele>
        <time>2019-04-19T13:58:30Z</time>
      </trkpt>
      <trkpt lat="43.48528" lon="6.17503">
        <ele>147.9</ele>
        <time>2019-04-19T13:58:40Z</time>
      </trkpt>
      <trkpt lat="43.48519" lon="6.17501">
        <ele>148</ele>
        <time>2019-04-19T13:58:47Z</time>
      </trkpt>
      <trkpt lat="43.4851" lon="6.17501">
        <ele>148</ele>
        <time>2019-04-19T13:58:53Z</time>
      </trkpt>
      <trkpt lat="43.485" lon="6.17498">
        <ele>148.1</ele>
        <time>2019-04-19T13:58:59Z</time>
      </trkpt>
      <trkpt lat="43.48491" lon="6.17495">
        <ele>148</ele>
        <time>2019-04-19T13:59:09Z</time>
      </trkpt>
      <trkpt lat="43.48481" lon="6.17494">
        <ele>147.8</ele>
        <time>2019-04-19T13:59:15Z</time>
      </trkpt>
      <trkpt lat="43.48472" lon="6.17495">
        <ele>147</ele>
        <time>2019-04-19T13:59:25Z</time>
      </trkpt>
      <trkpt lat="43.48462" lon="6.17493">
        <ele>146.6</ele>
        <time>2019-04-19T13:59:35Z</time>
      </trkpt>
      <trkpt lat="43.48453" lon="6.17494">
        <ele>146.4</ele>
        <time>2019-04-19T13:59:41Z</time>
      </trkpt>
      <trkpt lat="43.48444" lon="6.17495">
        <ele>146.4</ele>
        <time>2019-04-19T13:59:47Z</time>
      </trkpt>
      <trkpt lat="43.48433" lon="6.17492">
        <ele>145.9</ele>
        <time>2019-04-19T13:59:54Z</time>
      </trkpt>
      <trkpt lat="43.48424" lon="6.17491">
        <ele>145.8</ele>
        <time>2019-04-19T14:00:07Z</time>
      </trkpt>
      <trkpt lat="43.48415" lon="6.1749">
        <ele>146</ele>
        <time>2019-04-19T14:00:14Z</time>
      </trkpt>
      <trkpt lat="43.48406" lon="6.17486">
        <ele>146</ele>
        <time>2019-04-19T14:00:21Z</time>
      </trkpt>
      <trkpt lat="43.48397" lon="6.17483">
        <ele>146</ele>
        <time>2019-04-19T14:00:28Z</time>
      </trkpt>
      <trkpt lat="43.48388" lon="6.17481">
        <ele>146.1</ele>
        <time>2019-04-19T14:00:36Z</time>
      </trkpt>
      <trkpt lat="43.48378" lon="6.17481">
        <ele>146.4</ele>
        <time>2019-04-19T14:00:44Z</time>
      </trkpt>
      <trkpt lat="43.48367" lon="6.17483">
        <ele>146.4</ele>
        <time>2019-04-19T14:00:50Z</time>
      </trkpt>
      <trkpt lat="43.48358" lon="6.17485">
        <ele>146.3</ele>
        <time>2019-04-19T14:00:57Z</time>
      </trkpt>
      <trkpt lat="43.48348" lon="6.17485">
        <ele>146.5</ele>
        <time>2019-04-19T14:01:04Z</time>
      </trkpt>
      <trkpt lat="43.48338" lon="6.17486">
        <ele>146.7</ele>
        <time>2019-04-19T14:01:12Z</time>
      </trkpt>
      <trkpt lat="43.48329" lon="6.1749">
        <ele>146.7</ele>
        <time>2019-04-19T14:01:20Z</time>
      </trkpt>
      <trkpt lat="43.48319" lon="6.17493">
        <ele>146.9</ele>
        <time>2019-04-19T14:01:28Z</time>
      </trkpt>
      <trkpt lat="43.48309" lon="6.17496">
        <ele>147</ele>
        <time>2019-04-19T14:01:37Z</time>
      </trkpt>
      <trkpt lat="43.48301" lon="6.17504">
        <ele>147</ele>
        <time>2019-04-19T14:01:45Z</time>
      </trkpt>
      <trkpt lat="43.48293" lon="6.17511">
        <ele>147</ele>
        <time>2019-04-19T14:01:54Z</time>
      </trkpt>
      <trkpt lat="43.48288" lon="6.1752">
        <ele>146.9</ele>
        <time>2019-04-19T14:02:04Z</time>
      </trkpt>
      <trkpt lat="43.48279" lon="6.17525">
        <ele>146.7</ele>
        <time>2019-04-19T14:02:11Z</time>
      </trkpt>
      <trkpt lat="43.4827" lon="6.17528">
        <ele>146.6</ele>
        <time>2019-04-19T14:02:19Z</time>
      </trkpt>
      <trkpt lat="43.48261" lon="6.17532">
        <ele>146.7</ele>
        <time>2019-04-19T14:02:27Z</time>
      </trkpt>
      <trkpt lat="43.48252" lon="6.17536">
        <ele>146.6</ele>
        <time>2019-04-19T14:02:36Z</time>
      </trkpt>
      <trkpt lat="43.48243" lon="6.17542">
        <ele>146.4</ele>
        <time>2019-04-19T14:02:44Z</time>
      </trkpt>
      <trkpt lat="43.48234" lon="6.17544">
        <ele>146.2</ele>
        <time>2019-04-19T14:02:54Z</time>
      </trkpt>
      <trkpt lat="43.48225" lon="6.17546">
        <ele>145.9</ele>
        <time>2019-04-19T14:03:04Z</time>
      </trkpt>
      <trkpt lat="43.48216" lon="6.17543">
        <ele>145.8</ele>
        <time>2019-04-19T14:03:14Z</time>
      </trkpt>
      <trkpt lat="43.48207" lon="6.17546">
        <ele>145.5</ele>
        <time>2019-04-19T14:03:44Z</time>
      </trkpt>
      <trkpt lat="43.48198" lon="6.17542">
        <ele>144.6</ele>
        <time>2019-04-19T14:04:09Z</time>
      </trkpt>
      <trkpt lat="43.48191" lon="6.17534">
        <ele>144.2</ele>
        <time>2019-04-19T14:04:21Z</time>
      </trkpt>
      <trkpt lat="43.48183" lon="6.17526">
        <ele>144.3</ele>
        <time>2019-04-19T14:04:30Z</time>
      </trkpt>
      <trkpt lat="43.48176" lon="6.17519">
        <ele>144.1</ele>
        <time>2019-04-19T14:04:40Z</time>
      </trkpt>
      <trkpt lat="43.48167" lon="6.17511">
        <ele>144.1</ele>
        <time>2019-04-19T14:04:51Z</time>
      </trkpt>
      <trkpt lat="43.48159" lon="6.17506">
        <ele>144.5</ele>
        <time>2019-04-19T14:05:03Z</time>
      </trkpt>
      <trkpt lat="43.4815" lon="6.17511">
        <ele>144.2</ele>
        <time>2019-04-19T14:05:15Z</time>
      </trkpt>
      <trkpt lat="43.48144" lon="6.17521">
        <ele>144.3</ele>
        <time>2019-04-19T14:05:25Z</time>
      </trkpt>
      <trkpt lat="43.48136" lon="6.17528">
        <ele>144</ele>
        <time>2019-04-19T14:05:35Z</time>
      </trkpt>
      <trkpt lat="43.4813" lon="6.17538">
        <ele>143.6</ele>
        <time>2019-04-19T14:05:48Z</time>
      </trkpt>
      <trkpt lat="43.48126" lon="6.17549">
        <ele>143.7</ele>
        <time>2019-04-19T14:06:02Z</time>
      </trkpt>
      <trkpt lat="43.48118" lon="6.17557">
        <ele>143.8</ele>
        <time>2019-04-19T14:06:18Z</time>
      </trkpt>
      <trkpt lat="43.4811" lon="6.17563">
        <ele>143.6</ele>
        <time>2019-04-19T14:06:27Z</time>
      </trkpt>
      <trkpt lat="43.48102" lon="6.1757">
        <ele>143.5</ele>
        <time>2019-04-19T14:06:36Z</time>
      </trkpt>
      <trkpt lat="43.48094" lon="6.17576">
        <ele>143.3</ele>
        <time>2019-04-19T14:06:46Z</time>
      </trkpt>
      <trkpt lat="43.48085" lon="6.17581">
        <ele>143.8</ele>
        <time>2019-04-19T14:06:55Z</time>
      </trkpt>
      <trkpt lat="43.48077" lon="6.17587">
        <ele>143.7</ele>
        <time>2019-04-19T14:07:05Z</time>
      </trkpt>
      <trkpt lat="43.4807" lon="6.17595">
        <ele>143.3</ele>
        <time>2019-04-19T14:07:13Z</time>
      </trkpt>
      <trkpt lat="43.48061" lon="6.17602">
        <ele>143.1</ele>
        <time>2019-04-19T14:07:22Z</time>
      </trkpt>
      <trkpt lat="43.48054" lon="6.17612">
        <ele>142.7</ele>
        <time>2019-04-19T14:07:31Z</time>
      </trkpt>
      <trkpt lat="43.48049" lon="6.17621">
        <ele>142.6</ele>
        <time>2019-04-19T14:07:39Z</time>
      </trkpt>
      <trkpt lat="43.48042" lon="6.17632">
        <ele>142.4</ele>
        <time>2019-04-19T14:07:48Z</time>
      </trkpt>
      <trkpt lat="43.48037" lon="6.17642">
        <ele>142.2</ele>
        <time>2019-04-19T14:07:58Z</time>
      </trkpt>
      <trkpt lat="43.48031" lon="6.17651">
        <ele>142.6</ele>
        <time>2019-04-19T14:08:08Z</time>
      </trkpt>
      <trkpt lat="43.48026" lon="6.17662">
        <ele>142.6</ele>
        <time>2019-04-19T14:08:17Z</time>
      </trkpt>
      <trkpt lat="43.48021" lon="6.17672">
        <ele>142.5</ele>
        <time>2019-04-19T14:08:25Z</time>
      </trkpt>
      <trkpt lat="43.48016" lon="6.17683">
        <ele>142.4</ele>
        <time>2019-04-19T14:08:34Z</time>
      </trkpt>
      <trkpt lat="43.48008" lon="6.17691">
        <ele>142.5</ele>
        <time>2019-04-19T14:08:44Z</time>
      </trkpt>
      <trkpt lat="43.48001" lon="6.17699">
        <ele>142.5</ele>
        <time>2019-04-19T14:08:57Z</time>
      </trkpt>
      <trkpt lat="43.47991" lon="6.17702">
        <ele>142.1</ele>
        <time>2019-04-19T14:09:06Z</time>
      </trkpt>
      <trkpt lat="43.47982" lon="6.17705">
        <ele>141.5</ele>
        <time>2019-04-19T14:09:15Z</time>
      </trkpt>
      <trkpt lat="43.47973" lon="6.17711">
        <ele>141.1</ele>
        <time>2019-04-19T14:09:23Z</time>
      </trkpt>
      <trkpt lat="43.47963" lon="6.17716">
        <ele>140.6</ele>
        <time>2019-04-19T14:09:32Z</time>
      </trkpt>
      <trkpt lat="43.47955" lon="6.17722">
        <ele>140.5</ele>
        <time>2019-04-19T14:09:41Z</time>
      </trkpt>
      <trkpt lat="43.47945" lon="6.17723">
        <ele>141</ele>
        <time>2019-04-19T14:09:51Z</time>
      </trkpt>
      <trkpt lat="43.47938" lon="6.17731">
        <ele>141</ele>
        <time>2019-04-19T14:10:00Z</time>
      </trkpt>
      <trkpt lat="43.4793" lon="6.17739">
        <ele>140.6</ele>
        <time>2019-04-19T14:10:10Z</time>
      </trkpt>
      <trkpt lat="43.47922" lon="6.17746">
        <ele>140.4</ele>
        <time>2019-04-19T14:10:21Z</time>
      </trkpt>
      <trkpt lat="43.47914" lon="6.17754">
        <ele>140.1</ele>
        <time>2019-04-19T14:10:31Z</time>
      </trkpt>
      <trkpt lat="43.47907" lon="6.1776">
        <ele>139.9</ele>
        <time>2019-04-19T14:10:40Z</time>
      </trkpt>
      <trkpt lat="43.47898" lon="6.17765">
        <ele>140.3</ele>
        <time>2019-04-19T14:10:53Z</time>
      </trkpt>
      <trkpt lat="43.47889" lon="6.17769">
        <ele>140.8</ele>
        <time>2019-04-19T14:11:05Z</time>
      </trkpt>
      <trkpt lat="43.4788" lon="6.17772">
        <ele>141</ele>
        <time>2019-04-19T14:11:14Z</time>
      </trkpt>
      <trkpt lat="43.47871" lon="6.17776">
        <ele>141.3</ele>
        <time>2019-04-19T14:11:23Z</time>
      </trkpt>
      <trkpt lat="43.47861" lon="6.17775">
        <ele>142</ele>
        <time>2019-04-19T14:11:37Z</time>
      </trkpt>
      <trkpt lat="43.47853" lon="6.1777">
        <ele>142.7</ele>
        <time>2019-04-19T14:11:55Z</time>
      </trkpt>
      <trkpt lat="43.47843" lon="6.17766">
        <ele>142.7</ele>
        <time>2019-04-19T14:12:03Z</time>
      </trkpt>
      <trkpt lat="43.47834" lon="6.17763">
        <ele>143</ele>
        <time>2019-04-19T14:12:12Z</time>
      </trkpt>
      <trkpt lat="43.47825" lon="6.17766">
        <ele>143.1</ele>
        <time>2019-04-19T14:12:40Z</time>
      </trkpt>
      <trkpt lat="43.47821" lon="6.17777">
        <ele>142.3</ele>
        <time>2019-04-19T14:13:49Z</time>
      </trkpt>
      <trkpt lat="43.47821" lon="6.1779">
        <ele>141.9</ele>
        <time>2019-04-19T14:14:50Z</time>
      </trkpt>
      <trkpt lat="43.47827" lon="6.17779">
        <ele>142.8</ele>
        <time>2019-04-19T14:17:38Z</time>
      </trkpt>
      <trkpt lat="43.47821" lon="6.17768">
        <ele>142.8</ele>
        <time>2019-04-19T14:17:50Z</time>
      </trkpt>
      <trkpt lat="43.47815" lon="6.17759">
        <ele>142.8</ele>
        <time>2019-04-19T14:18:00Z</time>
      </trkpt>
      <trkpt lat="43.47811" lon="6.17747">
        <ele>142.6</ele>
        <time>2019-04-19T14:18:10Z</time>
      </trkpt>
      <trkpt lat="43.47808" lon="6.17735">
        <ele>142.7</ele>
        <time>2019-04-19T14:18:18Z</time>
      </trkpt>
      <trkpt lat="43.47804" lon="6.17722">
        <ele>142.9</ele>
        <time>2019-04-19T14:18:26Z</time>
      </trkpt>
      <trkpt lat="43.47801" lon="6.17711">
        <ele>142.9</ele>
        <time>2019-04-19T14:18:34Z</time>
      </trkpt>
      <trkpt lat="43.47798" lon="6.17698">
        <ele>142.9</ele>
        <time>2019-04-19T14:18:43Z</time>
      </trkpt>
      <trkpt lat="43.47796" lon="6.17685">
        <ele>142.9</ele>
        <time>2019-04-19T14:18:52Z</time>
      </trkpt>
      <trkpt lat="43.47793" lon="6.17673">
        <ele>142.9</ele>
        <time>2019-04-19T14:19:01Z</time>
      </trkpt>
      <trkpt lat="43.47789" lon="6.17661">
        <ele>142.6</ele>
        <time>2019-04-19T14:19:10Z</time>
      </trkpt>
      <trkpt lat="43.47785" lon="6.17648">
        <ele>142.4</ele>
        <time>2019-04-19T14:19:20Z</time>
      </trkpt>
      <trkpt lat="43.47781" lon="6.17636">
        <ele>142.2</ele>
        <time>2019-04-19T14:19:30Z</time>
      </trkpt>
      <trkpt lat="43.47777" lon="6.17625">
        <ele>142.4</ele>
        <time>2019-04-19T14:19:40Z</time>
      </trkpt>
      <trkpt lat="43.47774" lon="6.17613">
        <ele>142.8</ele>
        <time>2019-04-19T14:19:51Z</time>
      </trkpt>
      <trkpt lat="43.47774" lon="6.176">
        <ele>143.1</ele>
        <time>2019-04-19T14:20:01Z</time>
      </trkpt>
      <trkpt lat="43.47772" lon="6.17587">
        <ele>143.1</ele>
        <time>2019-04-19T14:20:13Z</time>
      </trkpt>
      <trkpt lat="43.47772" lon="6.17574">
        <ele>142.9</ele>
        <time>2019-04-19T14:20:21Z</time>
      </trkpt>
      <trkpt lat="43.47774" lon="6.17561">
        <ele>142.8</ele>
        <time>2019-04-19T14:20:32Z</time>
      </trkpt>
      <trkpt lat="43.47772" lon="6.17549">
        <ele>141.8</ele>
        <time>2019-04-19T14:21:00Z</time>
      </trkpt>
      <trkpt lat="43.47764" lon="6.17556">
        <ele>141.7</ele>
        <time>2019-04-19T14:21:14Z</time>
      </trkpt>
      <trkpt lat="43.47759" lon="6.17567">
        <ele>141.7</ele>
        <time>2019-04-19T14:21:25Z</time>
      </trkpt>
      <trkpt lat="43.47753" lon="6.17578">
        <ele>140.9</ele>
        <time>2019-04-19T14:21:36Z</time>
      </trkpt>
      <trkpt lat="43.4775" lon="6.1759">
        <ele>140.7</ele>
        <time>2019-04-19T14:21:47Z</time>
      </trkpt>
      <trkpt lat="43.47743" lon="6.176">
        <ele>139.7</ele>
        <time>2019-04-19T14:21:56Z</time>
      </trkpt>
      <trkpt lat="43.47737" lon="6.17611">
        <ele>138.6</ele>
        <time>2019-04-19T14:22:06Z</time>
      </trkpt>
      <trkpt lat="43.47731" lon="6.17621">
        <ele>137.9</ele>
        <time>2019-04-19T14:22:17Z</time>
      </trkpt>
      <trkpt lat="43.47725" lon="6.17631">
        <ele>137.2</ele>
        <time>2019-04-19T14:22:30Z</time>
      </trkpt>
      <trkpt lat="43.47716" lon="6.17632">
        <ele>137.3</ele>
        <time>2019-04-19T14:22:58Z</time>
      </trkpt>
      <trkpt lat="43.47709" lon="6.17623">
        <ele>137.3</ele>
        <time>2019-04-19T14:23:10Z</time>
      </trkpt>
      <trkpt lat="43.47704" lon="6.17612">
        <ele>137.5</ele>
        <time>2019-04-19T14:23:20Z</time>
      </trkpt>
      <trkpt lat="43.47699" lon="6.17601">
        <ele>138.4</ele>
        <time>2019-04-19T14:23:32Z</time>
      </trkpt>
      <trkpt lat="43.47698" lon="6.17588">
        <ele>138.8</ele>
        <time>2019-04-19T14:23:43Z</time>
      </trkpt>
      <trkpt lat="43.47694" lon="6.17577">
        <ele>139.4</ele>
        <time>2019-04-19T14:23:54Z</time>
      </trkpt>
      <trkpt lat="43.47686" lon="6.1757">
        <ele>139.3</ele>
        <time>2019-04-19T14:24:16Z</time>
      </trkpt>
      <trkpt lat="43.47678" lon="6.17575">
        <ele>139.3</ele>
        <time>2019-04-19T14:24:30Z</time>
      </trkpt>
      <trkpt lat="43.47669" lon="6.1758">
        <ele>139.1</ele>
        <time>2019-04-19T14:24:41Z</time>
      </trkpt>
      <trkpt lat="43.4766" lon="6.17585">
        <ele>138.7</ele>
        <time>2019-04-19T14:24:57Z</time>
      </trkpt>
      <trkpt lat="43.47651" lon="6.17587">
        <ele>139</ele>
        <time>2019-04-19T14:25:10Z</time>
      </trkpt>
      <trkpt lat="43.47643" lon="6.17591">
        <ele>139</ele>
        <time>2019-04-19T14:25:21Z</time>
      </trkpt>
      <trkpt lat="43.47634" lon="6.17595">
        <ele>139.4</ele>
        <time>2019-04-19T14:25:29Z</time>
      </trkpt>
      <trkpt lat="43.47626" lon="6.176">
        <ele>139.6</ele>
        <time>2019-04-19T14:25:38Z</time>
      </trkpt>
      <trkpt lat="43.47616" lon="6.17605">
        <ele>140</ele>
        <time>2019-04-19T14:25:48Z</time>
      </trkpt>
      <trkpt lat="43.47607" lon="6.17606">
        <ele>140.1</ele>
        <time>2019-04-19T14:25:55Z</time>
      </trkpt>
      <trkpt lat="43.47598" lon="6.17607">
        <ele>139.9</ele>
        <time>2019-04-19T14:26:03Z</time>
      </trkpt>
      <trkpt lat="43.47588" lon="6.1761">
        <ele>140</ele>
        <time>2019-04-19T14:26:13Z</time>
      </trkpt>
      <trkpt lat="43.47579" lon="6.17613">
        <ele>140.1</ele>
        <time>2019-04-19T14:26:20Z</time>
      </trkpt>
      <trkpt lat="43.4757" lon="6.17618">
        <ele>140.1</ele>
        <time>2019-04-19T14:26:28Z</time>
      </trkpt>
      <trkpt lat="43.47566" lon="6.17629">
        <ele>139.8</ele>
        <time>2019-04-19T14:26:43Z</time>
      </trkpt>
      <trkpt lat="43.47567" lon="6.17642">
        <ele>139.8</ele>
        <time>2019-04-19T14:26:59Z</time>
      </trkpt>
      <trkpt lat="43.4757" lon="6.17654">
        <ele>139.6</ele>
        <time>2019-04-19T14:27:10Z</time>
      </trkpt>
      <trkpt lat="43.47572" lon="6.17667">
        <ele>139.9</ele>
        <time>2019-04-19T14:27:21Z</time>
      </trkpt>
      <trkpt lat="43.47576" lon="6.17681">
        <ele>139.6</ele>
        <time>2019-04-19T14:27:30Z</time>
      </trkpt>
      <trkpt lat="43.47579" lon="6.17694">
        <ele>139.4</ele>
        <time>2019-04-19T14:27:38Z</time>
      </trkpt>
      <trkpt lat="43.47581" lon="6.17707">
        <ele>139.6</ele>
        <time>2019-04-19T14:27:46Z</time>
      </trkpt>
      <trkpt lat="43.47583" lon="6.1772">
        <ele>139.8</ele>
        <time>2019-04-19T14:27:58Z</time>
      </trkpt>
      <trkpt lat="43.47586" lon="6.17733">
        <ele>139.8</ele>
        <time>2019-04-19T14:28:08Z</time>
      </trkpt>
      <trkpt lat="43.47588" lon="6.17745">
        <ele>139.3</ele>
        <time>2019-04-19T14:28:17Z</time>
      </trkpt>
      <trkpt lat="43.47591" lon="6.17757">
        <ele>139.2</ele>
        <time>2019-04-19T14:28:27Z</time>
      </trkpt>
      <trkpt lat="43.47594" lon="6.1777">
        <ele>139.3</ele>
        <time>2019-04-19T14:28:36Z</time>
      </trkpt>
      <trkpt lat="43.47597" lon="6.17782">
        <ele>139.1</ele>
        <time>2019-04-19T14:28:45Z</time>
      </trkpt>
      <trkpt lat="43.47601" lon="6.17795">
        <ele>138.7</ele>
        <time>2019-04-19T14:28:55Z</time>
      </trkpt>
      <trkpt lat="43.47606" lon="6.17807">
        <ele>138.6</ele>
        <time>2019-04-19T14:29:05Z</time>
      </trkpt>
      <trkpt lat="43.47609" lon="6.17819">
        <ele>138.5</ele>
        <time>2019-04-19T14:29:14Z</time>
      </trkpt>
      <trkpt lat="43.47613" lon="6.17831">
        <ele>138.5</ele>
        <time>2019-04-19T14:29:24Z</time>
      </trkpt>
      <trkpt lat="43.47618" lon="6.17843">
        <ele>138.3</ele>
        <time>2019-04-19T14:29:33Z</time>
      </trkpt>
      <trkpt lat="43.47622" lon="6.17854">
        <ele>138.1</ele>
        <time>2019-04-19T14:29:42Z</time>
      </trkpt>
      <trkpt lat="43.47625" lon="6.17866">
        <ele>138.4</ele>
        <time>2019-04-19T14:29:51Z</time>
      </trkpt>
      <trkpt lat="43.47627" lon="6.17879">
        <ele>138.4</ele>
        <time>2019-04-19T14:30:06Z</time>
      </trkpt>
      <trkpt lat="43.47628" lon="6.17892">
        <ele>138.4</ele>
        <time>2019-04-19T14:30:15Z</time>
      </trkpt>
      <trkpt lat="43.47631" lon="6.17904">
        <ele>138.9</ele>
        <time>2019-04-19T14:30:21Z</time>
      </trkpt>
      <trkpt lat="43.47633" lon="6.17918">
        <ele>139.7</ele>
        <time>2019-04-19T14:30:30Z</time>
      </trkpt>
      <trkpt lat="43.47636" lon="6.17929">
        <ele>140</ele>
        <time>2019-04-19T14:30:39Z</time>
      </trkpt>
      <trkpt lat="43.47644" lon="6.17936">
        <ele>140.9</ele>
        <time>2019-04-19T14:30:52Z</time>
      </trkpt>
      <trkpt lat="43.47651" lon="6.17947">
        <ele>141.5</ele>
        <time>2019-04-19T14:31:00Z</time>
      </trkpt>
      <trkpt lat="43.47655" lon="6.17959">
        <ele>142.2</ele>
        <time>2019-04-19T14:31:08Z</time>
      </trkpt>
      <trkpt lat="43.47653" lon="6.17972">
        <ele>143.8</ele>
        <time>2019-04-19T14:31:23Z</time>
      </trkpt>
      <trkpt lat="43.47648" lon="6.17981">
        <ele>145.4</ele>
        <time>2019-04-19T14:31:45Z</time>
      </trkpt>
      <trkpt lat="43.47639" lon="6.17977">
        <ele>145.6</ele>
        <time>2019-04-19T14:31:57Z</time>
      </trkpt>
      <trkpt lat="43.47631" lon="6.1797">
        <ele>145.9</ele>
        <time>2019-04-19T14:32:10Z</time>
      </trkpt>
      <trkpt lat="43.47622" lon="6.17967">
        <ele>145.9</ele>
        <time>2019-04-19T14:32:19Z</time>
      </trkpt>
      <trkpt lat="43.47613" lon="6.17964">
        <ele>145.9</ele>
        <time>2019-04-19T14:32:30Z</time>
      </trkpt>
      <trkpt lat="43.47604" lon="6.17962">
        <ele>145.7</ele>
        <time>2019-04-19T14:32:41Z</time>
      </trkpt>
      <trkpt lat="43.47595" lon="6.17962">
        <ele>145.8</ele>
        <time>2019-04-19T14:32:53Z</time>
      </trkpt>
      <trkpt lat="43.47585" lon="6.17961">
        <ele>146.7</ele>
        <time>2019-04-19T14:33:07Z</time>
      </trkpt>
      <trkpt lat="43.47576" lon="6.17964">
        <ele>147.3</ele>
        <time>2019-04-19T14:33:18Z</time>
      </trkpt>
      <trkpt lat="43.47583" lon="6.17971">
        <ele>150.5</ele>
        <time>2019-04-19T14:33:56Z</time>
      </trkpt>
      <trkpt lat="43.47583" lon="6.17984">
        <ele>151.9</ele>
        <time>2019-04-19T14:34:12Z</time>
      </trkpt>
      <trkpt lat="43.47593" lon="6.17986">
        <ele>153</ele>
        <time>2019-04-19T14:34:39Z</time>
      </trkpt>
      <trkpt lat="43.47602" lon="6.17992">
        <ele>154.8</ele>
        <time>2019-04-19T14:34:52Z</time>
      </trkpt>
      <trkpt lat="43.47604" lon="6.18005">
        <ele>159.1</ele>
        <time>2019-04-19T14:35:59Z</time>
      </trkpt>
      <trkpt lat="43.47603" lon="6.18017">
        <ele>161.3</ele>
        <time>2019-04-19T14:36:29Z</time>
      </trkpt>
      <trkpt lat="43.47596" lon="6.18025">
        <ele>163.3</ele>
        <time>2019-04-19T14:36:48Z</time>
      </trkpt>
      <trkpt lat="43.47594" lon="6.18038">
        <ele>165.1</ele>
        <time>2019-04-19T14:37:11Z</time>
      </trkpt>
      <trkpt lat="43.47596" lon="6.1805">
        <ele>164.6</ele>
        <time>2019-04-19T14:37:27Z</time>
      </trkpt>
      <trkpt lat="43.47601" lon="6.18061">
        <ele>164.2</ele>
        <time>2019-04-19T14:37:51Z</time>
      </trkpt>
      <trkpt lat="43.4761" lon="6.18058">
        <ele>165</ele>
        <time>2019-04-19T14:38:34Z</time>
      </trkpt>
      <trkpt lat="43.4761" lon="6.18071">
        <ele>165.8</ele>
        <time>2019-04-19T14:39:54Z</time>
      </trkpt>
      <trkpt lat="43.47619" lon="6.18069">
        <ele>163.8</ele>
        <time>2019-04-19T14:41:33Z</time>
      </trkpt>
      <trkpt lat="43.47614" lon="6.18059">
        <ele>161.9</ele>
        <time>2019-04-19T14:42:03Z</time>
      </trkpt>
      <trkpt lat="43.47624" lon="6.1806">
        <ele>159.1</ele>
        <time>2019-04-19T14:42:43Z</time>
      </trkpt>
      <trkpt lat="43.47633" lon="6.18062">
        <ele>157.9</ele>
        <time>2019-04-19T14:43:03Z</time>
      </trkpt>
      <trkpt lat="43.47641" lon="6.18055">
        <ele>154.3</ele>
        <time>2019-04-19T14:45:31Z</time>
      </trkpt>
      <trkpt lat="43.47645" lon="6.18044">
        <ele>151.2</ele>
        <time>2019-04-19T14:45:53Z</time>
      </trkpt>
      <trkpt lat="43.47653" lon="6.18053">
        <ele>146.9</ele>
        <time>2019-04-19T14:47:31Z</time>
      </trkpt>
      <trkpt lat="43.47654" lon="6.18066">
        <ele>145.1</ele>
        <time>2019-04-19T14:47:49Z</time>
      </trkpt>
      <trkpt lat="43.47649" lon="6.18077">
        <ele>143.9</ele>
        <time>2019-04-19T14:48:04Z</time>
      </trkpt>
      <trkpt lat="43.47651" lon="6.1809">
        <ele>143.2</ele>
        <time>2019-04-19T14:48:23Z</time>
      </trkpt>
      <trkpt lat="43.47654" lon="6.18102">
        <ele>142.7</ele>
        <time>2019-04-19T14:49:25Z</time>
      </trkpt>
      <trkpt lat="43.47649" lon="6.18113">
        <ele>142.3</ele>
        <time>2019-04-19T14:50:58Z</time>
      </trkpt>
      <trkpt lat="43.47649" lon="6.18125">
        <ele>141.9</ele>
        <time>2019-04-19T14:51:14Z</time>
      </trkpt>
      <trkpt lat="43.47653" lon="6.18137">
        <ele>141.3</ele>
        <time>2019-04-19T14:51:25Z</time>
      </trkpt>
      <trkpt lat="43.47661" lon="6.18131">
        <ele>136.2</ele>
        <time>2019-04-19T14:52:07Z</time>
      </trkpt>
      <trkpt lat="43.47666" lon="6.1812">
        <ele>135.6</ele>
        <time>2019-04-19T14:52:14Z</time>
      </trkpt>
      <trkpt lat="43.47676" lon="6.18121">
        <ele>133.8</ele>
        <time>2019-04-19T14:52:28Z</time>
      </trkpt>
      <trkpt lat="43.47679" lon="6.18133">
        <ele>132.9</ele>
        <time>2019-04-19T14:52:37Z</time>
      </trkpt>
      <trkpt lat="43.47688" lon="6.18127">
        <ele>132.3</ele>
        <time>2019-04-19T14:52:46Z</time>
      </trkpt>
      <trkpt lat="43.47697" lon="6.18121">
        <ele>132.1</ele>
        <time>2019-04-19T14:52:52Z</time>
      </trkpt>
      <trkpt lat="43.47706" lon="6.18117">
        <ele>131.8</ele>
        <time>2019-04-19T14:53:03Z</time>
      </trkpt>
      <trkpt lat="43.47716" lon="6.18122">
        <ele>131.5</ele>
        <time>2019-04-19T14:53:13Z</time>
      </trkpt>
      <trkpt lat="43.47724" lon="6.18128">
        <ele>131.1</ele>
        <time>2019-04-19T14:53:19Z</time>
      </trkpt>
      <trkpt lat="43.4773" lon="6.18139">
        <ele>130.3</ele>
        <time>2019-04-19T14:53:35Z</time>
      </trkpt>
      <trkpt lat="43.47731" lon="6.18151">
        <ele>129.7</ele>
        <time>2019-04-19T14:53:53Z</time>
      </trkpt>
      <trkpt lat="43.47733" lon="6.18164">
        <ele>129.1</ele>
        <time>2019-04-19T14:54:03Z</time>
      </trkpt>
      <trkpt lat="43.47735" lon="6.18177">
        <ele>129</ele>
        <time>2019-04-19T14:54:12Z</time>
      </trkpt>
      <trkpt lat="43.4774" lon="6.18187">
        <ele>128.7</ele>
        <time>2019-04-19T14:54:20Z</time>
      </trkpt>
      <trkpt lat="43.47743" lon="6.182">
        <ele>128.5</ele>
        <time>2019-04-19T14:54:29Z</time>
      </trkpt>
      <trkpt lat="43.47747" lon="6.18211">
        <ele>128.4</ele>
        <time>2019-04-19T14:54:37Z</time>
      </trkpt>
      <trkpt lat="43.4775" lon="6.18224">
        <ele>128</ele>
        <time>2019-04-19T14:54:48Z</time>
      </trkpt>
      <trkpt lat="43.47753" lon="6.18236">
        <ele>127.5</ele>
        <time>2019-04-19T14:54:58Z</time>
      </trkpt>
      <trkpt lat="43.47753" lon="6.18249">
        <ele>127.3</ele>
        <time>2019-04-19T14:55:10Z</time>
      </trkpt>
      <trkpt lat="43.47754" lon="6.18262">
        <ele>126.9</ele>
        <time>2019-04-19T14:55:20Z</time>
      </trkpt>
      <trkpt lat="43.47755" lon="6.18275">
        <ele>126.9</ele>
        <time>2019-04-19T14:55:33Z</time>
      </trkpt>
      <trkpt lat="43.47756" lon="6.18289">
        <ele>127</ele>
        <time>2019-04-19T14:55:46Z</time>
      </trkpt>
      <trkpt lat="43.47753" lon="6.18301">
        <ele>126.9</ele>
        <time>2019-04-19T14:55:55Z</time>
      </trkpt>
      <trkpt lat="43.47757" lon="6.18313">
        <ele>126.7</ele>
        <time>2019-04-19T14:56:05Z</time>
      </trkpt>
      <trkpt lat="43.47763" lon="6.18322">
        <ele>126.4</ele>
        <time>2019-04-19T14:56:22Z</time>
      </trkpt>
      <trkpt lat="43.4777" lon="6.1833">
        <ele>126</ele>
        <time>2019-04-19T14:56:40Z</time>
      </trkpt>
      <trkpt lat="43.47779" lon="6.18331">
        <ele>125.7</ele>
        <time>2019-04-19T14:56:54Z</time>
      </trkpt>
      <trkpt lat="43.47782" lon="6.18326">
        <ele>125.5</ele>
        <time>2019-04-19T14:57:01Z</time>
      </trkpt>
    </trkseg>
  </trk>
</gpx>